Flight Track Log - Related Links

Times and Time Zones

All times are in EDT time to prevent confusion due to time zone crossing. See the DAL268 flight status page for this flight to view local times or setup timezone preferences in your user account.

Time Position Orientation Groundspeed Altitude Reporting Facility
EDT Latitude Longitude Course Direction KTS MPH feet Rate Location/Type
Sat 12:03:19 AM 40.6070 -73.7680 264° West  Level FlightAware ADS-B
Sat 12:05:02 AM 40.6060 -73.7680 180° South 29 Level FlightAware ADS-B
Sat 12:13:00 AM 40.9051 -73.5283 37° Northeast  Level FlightAware Approximate
Sat 12:16:00 AM 40.9109 -73.5224 37° Northeast  Level FlightAware Approximate
Sat 12:27:06 AM 40.6050 -73.7470 207° Southwest 105 121  Level FlightAware ADS-B
Sat 12:27:26 AM 40.5940 -73.7560 212° Southwest 128 147 933 Level FlightAware ADS-B
Sat 12:27:51 AM 40.5750 -73.7680 206° Southwest 182 209 700 1,696 Climbing FlightAware ADS-B
Sat 12:28:12 AM 40.5590 -73.7780 205° Southwest 189 217 1,300 1,333 Climbing FlightAware ADS-B
Sat 12:28:36 AM 40.5370 -73.7890 201° Southwest 224 258 1,700 857 Climbing FlightAware ADS-B
Sat 12:28:40 AM 40.5330 -73.7890 180° South 234 269 1,700 1,071 Level FlightAware ADS-B
Sat 12:29:04 AM 40.5070 -73.7790 164° South 262 302 2,200 1,286 Climbing FlightAware ADS-B
Sat 12:29:08 AM 40.5030 -73.7740 136° Southeast 267 307 2,300 947 Climbing FlightAware ADS-B
Sat 12:29:23 AM 40.4920 -73.7550 127° Southeast 285 328 2,500 1,043 Climbing FlightAware ADS-B
Sat 12:29:31 AM 40.4880 -73.7420 112° Southeast 294 338 2,700 1,385 Climbing FlightAware ADS-B
Sat 12:29:36 AM 40.4860 -73.7320 105° East 299 344 2,800 1,902 Climbing FlightAware ADS-B
Sat 12:30:12 AM 40.4920 -73.6690 83° East 307 353 4,000 2,087 Climbing FlightAware ADS-B
Sat 12:30:22 AM 40.5009 -73.6522 55° Northeast 310 357 4,400 2,640 Climbing FlightAware ADS-B
Sat 12:30:37 AM 40.5154 -73.6294 50° Northeast 310 357 5,100 2,903 Climbing FlightAware ADS-B
Sat 12:30:53 AM 40.5302 -73.6065 50° Northeast 311 358 5,900 2,438 Climbing FlightAware ADS-B
Sat 12:31:09 AM 40.5446 -73.5837 50° Northeast 317 365 6,400 2,129 Climbing FlightAware ADS-B
Sat 12:31:24 AM 40.5591 -73.5616 49° Northeast 320 368 7,000 2,667 Climbing FlightAware ADS-B
Sat 12:31:36 AM 40.5722 -73.5443 45° Northeast 318 366 7,600 2,667 Climbing FlightAware ADS-B
Sat 12:31:42 AM 40.5788 -73.5370 40° Northeast 320 368 7,800 1,800 Climbing FlightAware ADS-B
Sat 12:31:46 AM 40.5835 -73.5325 36° Northeast 321 369 7,900 1,333 Climbing FlightAware ADS-B
Sat 12:31:51 AM 40.5902 -73.5277 29° Northeast 323 372 8,000 1,333 Climbing FlightAware ADS-B
Sat 12:31:55 AM 40.5957 -73.5244 24° Northeast 323 372 8,100 2,182 Climbing FlightAware ADS-B
Sat 12:32:02 AM 40.6057 -73.5202 18° North 321 369 8,400 2,750 Climbing FlightAware ADS-B
Sat 12:32:19 AM 40.6302 -73.5134 12° North 320 368 9,200 2,160 Climbing FlightAware ADS-B
Sat 12:32:52 AM 40.6789 -73.5010 11° North 329 379 10,200 1,594 Climbing FlightAware ADS-B
Sat 12:33:23 AM 40.7269 -73.4885 11° North 357 411 10,900 1,350 Climbing FlightAware ADS-B
Sat 12:34:12 AM 40.8099 -73.4583 15° North 362 417 12,000 1,465 Climbing FlightAware ADS-B
Sat 12:34:49 AM 40.8734 -73.4156 27° Northeast 421 484 13,000 1,791 Climbing FlightAware ADS-B
Sat 12:35:19 AM 40.9264 -73.3795 27° Northeast 430 495 14,000 2,031 Climbing FlightAware ADS-B
Sat 12:35:54 AM 40.9886 -73.3372 27° Northeast 436 502 15,200 1,964 Climbing FlightAware ADS-B
Sat 12:36:14 AM 41.0257 -73.3118 27° Northeast 445 512 15,800 1,610 Climbing FlightAware ADS-B
Sat 12:37:16 AM 41.1190 -73.2090 40° Northeast 473 544 17,400 1,642 Climbing FlightAware ADS-B
Sat 12:38:00 AM 41.1840 -73.0950 53° Northeast 487 560 18,700 1,725 Climbing FlightAware ADS-B
Sat 12:38:36 AM 41.2310 -73.0130 53° Northeast 491 565 19,700 1,667 Climbing FlightAware ADS-B
Sat 12:39:12 AM 41.2850 -72.9230 51° Northeast 497 572 20,700 1,412 Climbing FlightAware ADS-B
Sat 12:39:44 AM 41.3320 -72.8470 51° Northeast 505 581 21,300 1,313 Climbing FlightAware ADS-B
Sat 12:40:16 AM 41.3780 -72.7730 50° Northeast 510 587 22,100 1,371 Climbing FlightAware ADS-B
Sat 12:40:54 AM 41.4270 -72.6940 50° Northeast 517 595 22,900 894 Climbing FlightAware ADS-B
Sat 12:41:50 AM 41.5110 -72.5570 51° Northeast 521 600 23,500 391 Climbing FlightAware ADS-B
Sat 12:42:26 AM 41.5590 -72.4820 49° Northeast 521 600 23,500  Level FlightAware ADS-B
Sat 12:43:02 AM 41.6060 -72.4060 50° Northeast 521 600 23,500  Level FlightAware ADS-B
Sat 12:43:38 AM 41.6530 -72.3310 50° Northeast 521 600 23,500 3,947 Level FlightAware ADS-B
Sat 12:43:40 AM 41.6270 -72.3650 224° Southwest 133 153 26,000 6,667 Climbing FlightAware ADS-B
Sat 12:44:05 AM 41.7320 -72.1920 51° Northeast 553 636 26,500 1,065 Climbing FlightAware ADS-B
Sat 12:44:42 AM 41.7910 -72.0940 51° Northeast 559 643 27,100 1,014 Climbing FlightAware ADS-B
Sat 12:45:16 AM 41.8480 -72.0000 51° Northeast 564 649 27,700 1,084 Climbing FlightAware ADS-B
Sat 12:46:05 AM 41.9300 -71.8630 51° Northeast 566 651 28,600 1,184 Climbing FlightAware ADS-B
Sat 12:46:32 AM 41.9720 -71.7930 51° Northeast 564 649 29,200 1,455 Climbing FlightAware ADS-B
Sat 12:47:11 AM 42.0390 -71.6800 51° Northeast 561 646 30,200 1,360 Climbing FlightAware ADS-B
Sat 12:47:47 AM 42.0970 -71.5840 51° Northeast 557 641 30,900 649 Climbing FlightAware ADS-B
Sat 12:48:25 AM 42.1580 -71.4800 52° Northeast 557 641 31,000 81 Climbing FlightAware ADS-B
Sat 12:49:01 AM 42.2160 -71.3840 51° Northeast 555 639 31,000  Level FlightAware ADS-B
Sat 12:49:33 AM 42.2660 -71.2980 52° Northeast 553 636 31,000  Level FlightAware ADS-B
Sat 12:50:09 AM 42.3230 -71.2010 52° Northeast 553 636 31,000  Level FlightAware ADS-B
Sat 12:50:45 AM 42.3830 -71.0990 51° Northeast 553 636 31,000  Level FlightAware ADS-B
Sat 12:51:17 AM 42.4340 -71.0110 52° Northeast 553 636 31,000  Level FlightAware ADS-B
Sat 12:51:53 AM 42.4900 -70.9150 52° Northeast 554 638 31,000  Level FlightAware ADS-B
Sat 12:52:29 AM 42.5460 -70.8180 52° Northeast 554 638 31,000  Level FlightAware ADS-B
Sat 12:53:05 AM 42.6050 -70.7180 51° Northeast 553 636 31,000  Level FlightAware ADS-B
Sat 12:53:37 AM 42.6540 -70.6330 52° Northeast 553 636 31,000  Level FlightAware ADS-B
Sat 12:54:13 AM 42.7130 -70.5330 51° Northeast 553 636 31,000  Level FlightAware ADS-B
Sat 12:54:51 AM 42.7720 -70.4300 52° Northeast 553 636 31,000  Level FlightAware ADS-B
Sat 12:55:26 AM 42.8270 -70.3350 52° Northeast 554 638 31,000  Level FlightAware ADS-B
Sat 12:55:59 AM 42.8790 -70.2440 52° Northeast 555 639 31,000  Level FlightAware ADS-B
Sat 12:56:35 AM 42.9370 -70.1430 52° Northeast 555 639 31,000  Level FlightAware ADS-B
Sat 12:57:05 AM 42.9840 -70.0620 52° Northeast 556 640 31,000  Level FlightAware ADS-B
Sat 12:57:41 AM 43.0400 -69.9630 52° Northeast 556 640 31,000  Level FlightAware ADS-B
Sat 12:58:17 AM 43.0940 -69.8690 52° Northeast 558 642 31,000  Level FlightAware ADS-B
Sat 12:58:55 AM 43.1580 -69.7550 52° Northeast 558 642 31,000  Level FlightAware ADS-B
Sat 12:59:49 AM 43.2350 -69.6200 52° Northeast 558 642 31,000  Level FlightAware ADS-B
Sat 01:00:25 AM 43.2830 -69.5340 53° Northeast 558 642 31,000  Level FlightAware ADS-B
Sat 01:01:01 AM 43.3320 -69.4490 52° Northeast 558 642 31,000  Level FlightAware ADS-B
Sat 01:02:11 AM 43.4580 -69.2160 53° Northeast 557 641 31,000  Level FlightAware ADS-B
Sat 01:06:39 AM 43.8830 -68.4410 53° Northeast 562 647 31,000  Level FlightAware ADS-B
Sat 01:07:09 AM 43.9300 -68.3540 53° Northeast 563 648 31,000  Level FlightAware ADS-B
Sat 01:07:48 AM 43.9820 -68.2580 53° Northeast 563 648 31,000  Level FlightAware ADS-B
Sat 01:08:24 AM 44.0300 -68.1700 53° Northeast 563 648 31,000  Level FlightAware ADS-B
Sat 01:08:54 AM 44.0960 -68.0450 54° Northeast 563 648 31,000  Level FlightAware ADS-B
Sat 01:09:46 AM 44.1750 -67.8970 53° Northeast 564 649 31,000  Level FlightAware ADS-B
Sat 01:10:23 AM 44.2350 -67.7860 53° Northeast 564 649 31,000  Level FlightAware ADS-B
Sat 01:10:55 AM 44.2840 -67.6910 54° Northeast 565 650 31,000  Level FlightAware ADS-B
Sat 01:11:30 AM 44.3380 -67.5890 53° Northeast 564 649 31,000  Level FlightAware ADS-B
Sat 01:12:06 AM 44.3940 -67.4830 53° Northeast 564 649 31,000  Level FlightAware ADS-B
Sat 01:12:50 AM 44.4610 -67.3530 54° Northeast 564 649 31,000  Level FlightAware ADS-B
Sat 01:13:21 AM 44.5100 -67.2610 53° Northeast 564 649 31,000  Level FlightAware ADS-B
Sat 01:13:57 AM 44.5650 -67.1540 54° Northeast 564 649 31,000  Level FlightAware ADS-B
Sat 01:14:31 AM 44.6170 -67.0540 54° Northeast 564 649 31,000  Level FlightAware ADS-B
Sat 01:15:07 AM 44.6720 -66.9480 54° Northeast 564 649 31,000  Level FlightAware ADS-B
Sat 01:15:43 AM 44.7220 -66.8510 54° Northeast 564 649 31,000  Level FlightAware ADS-B
Sat 01:16:21 AM 44.7680 -66.7610 54° Northeast 564 649 31,000  Level FlightAware ADS-B
Sat 01:17:07 AM 44.8560 -66.5910 54° Northeast 564 649 31,000  Level FlightAware ADS-B
Sat 01:17:46 AM 44.9120 -66.4800 55° Northeast 566 651 31,000  Level FlightAware ADS-B
Sat 01:18:30 AM 44.9730 -66.3600 54° Northeast 566 651 31,000  Level FlightAware ADS-B
Sat 01:19:02 AM 45.0280 -66.2520 54° Northeast 567 652 31,000  Level FlightAware ADS-B
Sat 01:19:38 AM 45.0780 -66.1510 55° Northeast 567 652 31,000  Level FlightAware ADS-B
Sat 01:20:16 AM 45.1430 -66.0210 55° Northeast 569 655 31,000  Level FlightAware ADS-B
Sat 01:20:49 AM 45.1920 -65.9230 55° Northeast 568 654 31,000  Level FlightAware ADS-B
Sat 01:21:25 AM 45.2470 -65.8120 55° Northeast 567 652 31,000  Level FlightAware ADS-B
Sat 01:22:15 AM 45.3060 -65.6920 55° Northeast 567 652 31,000  Level FlightAware ADS-B
Sat 01:22:51 AM 45.3520 -65.5990 55° Northeast 567 652 31,000  Level FlightAware ADS-B
Sat 01:23:26 AM 45.4290 -65.4430 55° Northeast 564 649 31,000  Level FlightAware ADS-B
Sat 01:24:02 AM 45.4830 -65.3330 55° Northeast 564 649 31,000  Level FlightAware ADS-B
Sat 01:24:42 AM 45.5420 -65.2100 56° Northeast 564 649 31,000  Level FlightAware ADS-B
Sat 01:25:18 AM 45.5960 -65.1000 55° Northeast 563 648 31,000  Level FlightAware ADS-B
Sat 01:25:49 AM 45.6380 -65.0110 56° Northeast 564 649 31,000  Level FlightAware ADS-B
Sat 01:26:28 AM 45.6910 -64.9010 55° Northeast 564 649 31,000  Level FlightAware ADS-B
Sat 01:27:04 AM 45.7370 -64.8080 55° Northeast 564 649 31,000  Level FlightAware ADS-B
Sat 01:27:40 AM 45.7830 -64.7140 55° Northeast 564 649 31,000  Level FlightAware ADS-B
Sat 01:28:16 AM 45.8290 -64.6200 55° Northeast 564 649 31,000  Level FlightAware ADS-B
Sat 01:28:52 AM 45.8750 -64.5260 55° Northeast 564 649 31,000  Level FlightAware ADS-B
Sat 01:29:28 AM 45.9200 -64.4320 55° Northeast 564 649 31,000  Level FlightAware ADS-B
Sat 01:30:04 AM 45.9660 -64.3380 55° Northeast 564 649 31,000  Level FlightAware ADS-B
Sat 01:30:41 AM 46.0130 -64.2410 55° Northeast 564 649 31,000  Level FlightAware ADS-B
Sat 01:31:17 AM 46.0590 -64.1470 55° Northeast 564 649 31,000  Level FlightAware ADS-B
Sat 01:31:53 AM 46.1050 -64.0530 55° Northeast 564 649 31,000  Level FlightAware ADS-B
Sat 01:32:29 AM 46.1510 -63.9590 55° Northeast 564 649 31,000  Level FlightAware ADS-B
Sat 01:33:05 AM 46.1960 -63.8640 56° Northeast 564 649 31,000  Level FlightAware ADS-B
Sat 01:33:42 AM 46.2430 -63.7670 55° Northeast 564 649 31,000  Level FlightAware ADS-B
Sat 01:34:18 AM 46.2890 -63.6720 55° Northeast 564 649 31,000  Level FlightAware ADS-B
Sat 01:34:54 AM 46.3350 -63.5780 55° Northeast 564 649 31,000  Level FlightAware ADS-B
Sat 01:35:30 AM 46.3810 -63.4830 55° Northeast 564 649 31,000  Level FlightAware ADS-B
Sat 01:36:35 AM 46.6333 -62.9667 55° Northeast 570 656 31,000  Level Gander Center
Sat 01:42:25 AM 47.0790 -61.8200 55° Northeast 568 654 31,000  Level FlightAware ADS-B
Sat 01:43:00 AM 47.1200 -61.7250 58° Northeast 568 654 31,000  Level FlightAware ADS-B
Sat 01:43:37 AM 47.1780 -61.5850 59° Northeast 568 654 31,000  Level FlightAware ADS-B
Sat 01:44:27 AM 47.2470 -61.4200 58° Northeast 563 648 31,000  Level FlightAware ADS-B
Sat 01:45:03 AM 47.2960 -61.3040 58° Northeast 560 644 31,000  Level FlightAware ADS-B
Sat 01:45:46 AM 47.3470 -61.1820 58° Northeast 560 644 31,000  Level FlightAware ADS-B
Sat 01:46:17 AM 47.3960 -61.0610 59° Northeast 558 642 31,000  Level FlightAware ADS-B
Sat 01:46:51 AM 47.4360 -60.9650 58° Northeast 558 642 31,000  Level FlightAware ADS-B
Sat 01:47:27 AM 47.4780 -60.8650 58° Northeast 558 642 31,000  Level FlightAware ADS-B
Sat 01:48:03 AM 47.5200 -60.7660 58° Northeast 558 642 31,000  Level FlightAware ADS-B
Sat 01:48:39 AM 47.5610 -60.6670 58° Northeast 558 642 31,000  Level FlightAware ADS-B
Sat 01:49:16 AM 47.6040 -60.5650 58° Northeast 558 642 31,000  Level FlightAware ADS-B
Sat 01:49:52 AM 47.6460 -60.4660 58° Northeast 558 642 31,000  Level FlightAware ADS-B
Sat 01:50:28 AM 47.6880 -60.3660 58° Northeast 558 642 31,000  Level FlightAware ADS-B
Sat 01:51:04 AM 47.7300 -60.2670 58° Northeast 558 642 31,000  Level FlightAware ADS-B
Sat 01:51:40 AM 47.7720 -60.1670 58° Northeast 558 642 31,000  Level FlightAware ADS-B
Sat 01:52:16 AM 47.8140 -60.0670 58° Northeast 558 642 31,000  Level FlightAware ADS-B
Sat 01:52:52 AM 47.8560 -59.9670 58° Northeast 558 642 31,000 1,412 Level FlightAware ADS-B
Sat 01:53:24 AM 47.9540 -59.6630 64° Northeast 551 634 32,600 1,791 Climbing FlightAware ADS-B
Sat 01:53:59 AM 47.9970 -59.5490 61° Northeast 552 635 33,000 343 Climbing FlightAware ADS-B
Sat 01:54:34 AM 48.0440 -59.4290 60° Northeast 552 635 33,000  Level FlightAware ADS-B
Sat 01:55:04 AM 48.0810 -59.3310 61° Northeast 550 633 33,000  Level FlightAware ADS-B
Sat 01:55:59 AM 48.1500 -59.1490 60° Northeast 547 629 33,000  Level FlightAware ADS-B
Sat 01:56:34 AM 48.1930 -59.0370 60° Northeast 545 627 33,000  Level FlightAware ADS-B
Sat 01:57:09 AM 48.2350 -58.9250 61° Northeast 545 627 33,000  Level FlightAware ADS-B
Sat 01:57:49 AM 48.2860 -58.7900 60° Northeast 544 626 33,000  Level FlightAware ADS-B
Sat 01:58:19 AM 48.3230 -58.6890 61° Northeast 543 625 33,000  Level FlightAware ADS-B
Sat 01:59:00 AM 48.3720 -58.5570 61° Northeast 543 625 33,000  Level FlightAware ADS-B
Sat 01:59:34 AM 48.4120 -58.4490 61° Northeast 543 625 33,000  Level FlightAware ADS-B
Sat 02:00:09 AM 48.4590 -58.3240 60° Northeast 543 625 33,000  Level FlightAware ADS-B
Sat 02:00:44 AM 48.4990 -58.2110 62° Northeast 546 628 33,000  Level FlightAware ADS-B
Sat 02:01:19 AM 48.5380 -58.0950 63° Northeast 546 628 33,000  Level FlightAware ADS-B
Sat 02:01:54 AM 48.5790 -57.9710 63° Northeast 547 629 33,000  Level FlightAware ADS-B
Sat 02:02:29 AM 48.6170 -57.8560 63° Northeast 548 631 33,000  Level FlightAware ADS-B
Sat 02:03:04 AM 48.6570 -57.7360 63° Northeast 548 631 33,000  Level FlightAware ADS-B
Sat 02:03:39 AM 48.6980 -57.6140 63° Northeast 549 632 33,000  Level FlightAware ADS-B
Sat 02:04:14 AM 48.7390 -57.4900 63° Northeast 549 632 33,000  Level FlightAware ADS-B
Sat 02:04:49 AM 48.7780 -57.3750 63° Northeast 549 632 33,000  Level FlightAware ADS-B
Sat 02:05:24 AM 48.8180 -57.2530 63° Northeast 549 632 33,000  Level FlightAware ADS-B
Sat 02:05:59 AM 48.8590 -57.1280 63° Northeast 551 634 33,000  Level FlightAware ADS-B
Sat 02:06:34 AM 48.8990 -57.0080 63° Northeast 550 633 33,000  Level FlightAware ADS-B
Sat 02:07:11 AM 48.9370 -56.8890 64° Northeast 549 632 33,000  Level FlightAware ADS-B
Sat 02:07:44 AM 48.9770 -56.7680 63° Northeast 548 631 33,000  Level FlightAware ADS-B
Sat 02:08:19 AM 49.0170 -56.6440 64° Northeast 547 629 33,000  Level FlightAware ADS-B
Sat 02:08:54 AM 49.0560 -56.5240 64° Northeast 547 629 33,000  Level FlightAware ADS-B
Sat 02:09:29 AM 49.0950 -56.4030 64° Northeast 548 631 33,000  Level FlightAware ADS-B
Sat 02:10:04 AM 49.1340 -56.2810 64° Northeast 547 629 33,000  Level FlightAware ADS-B
Sat 02:10:39 AM 49.1720 -56.1600 64° Northeast 546 628 33,000  Level FlightAware ADS-B
Sat 02:11:18 AM 49.2100 -56.0390 64° Northeast 543 625 33,000  Level FlightAware ADS-B
Sat 02:11:59 AM 49.2580 -55.8870 64° Northeast 543 625 33,000  Level FlightAware ADS-B
Sat 02:12:29 AM 49.2920 -55.7790 64° Northeast 539 620 33,000  Level FlightAware ADS-B
Sat 02:13:04 AM 49.3290 -55.6590 65° Northeast 538 619 33,000  Level FlightAware ADS-B
Sat 02:13:41 AM 49.3670 -55.5390 64° Northeast 535 616 33,000  Level FlightAware ADS-B
Sat 02:14:14 AM 49.4030 -55.4190 65° Northeast 532 612 33,000  Level FlightAware ADS-B
Sat 02:14:54 AM 49.4450 -55.2830 65° Northeast 531 611 33,000  Level FlightAware ADS-B
Sat 02:15:24 AM 49.4750 -55.1860 65° Northeast 530 610 33,000  Level FlightAware ADS-B
Sat 02:15:59 AM 49.5120 -55.0650 65° Northeast 530 610 33,000  Level FlightAware ADS-B
Sat 02:16:39 AM 49.5540 -54.9270 65° Northeast 531 611 33,000  Level FlightAware ADS-B
Sat 02:17:14 AM 49.5910 -54.8050 65° Northeast 531 611 33,000  Level FlightAware ADS-B
Sat 02:17:44 AM 49.6210 -54.7070 65° Northeast 532 612 33,000  Level FlightAware ADS-B
Sat 02:18:19 AM 49.6580 -54.5810 66° East 532 612 33,000  Level FlightAware ADS-B
Sat 02:18:59 AM 49.7000 -54.4420 65° Northeast 532 612 33,000  Level FlightAware ADS-B
Sat 02:19:34 AM 49.7360 -54.3210 65° Northeast 532 612 33,000  Level FlightAware ADS-B
Sat 02:20:04 AM 49.7660 -54.2190 65° Northeast 531 611 33,000  Level FlightAware ADS-B
Sat 02:20:39 AM 49.8010 -54.1010 65° Northeast 530 610 33,000  Level FlightAware ADS-B
Sat 02:21:19 AM 49.8430 -53.9590 65° Northeast 529 609 33,000  Level FlightAware ADS-B
Sat 02:21:49 AM 49.8720 -53.8590 66° East 527 606 33,000  Level FlightAware ADS-B
Sat 02:22:29 AM 49.9120 -53.7220 66° East 527 606 33,000  Level FlightAware ADS-B
Sat 02:23:04 AM 49.9480 -53.5980 66° East 527 606 33,000  Level FlightAware ADS-B
Sat 02:23:34 AM 49.9780 -53.4970 65° Northeast 526 605 33,000  Level FlightAware ADS-B
Sat 02:24:09 AM 50.0130 -53.3740 66° East 526 605 33,000  Level FlightAware ADS-B
Sat 02:24:49 AM 50.0520 -53.2360 66° East 527 606 33,000  Level FlightAware ADS-B
Sat 02:25:24 AM 50.0870 -53.1150 66° East 527 606 33,000  Level FlightAware ADS-B
Sat 02:25:59 AM 50.1210 -52.9960 66° East 527 606 33,000  Level FlightAware ADS-B
Sat 02:26:39 AM 50.1590 -52.8610 66° East 527 606 33,000  Level FlightAware ADS-B
Sat 02:27:14 AM 50.1950 -52.7330 66° East 526 605 33,000  Level FlightAware ADS-B
Sat 02:27:49 AM 50.2280 -52.6130 67° East 525 604 33,000  Level FlightAware ADS-B
Sat 02:28:25 AM 50.2640 -52.4850 66° East 525 604 33,000  Level FlightAware ADS-B
Sat 02:28:58 AM 50.2920 -52.3850 66° East 525 604 33,000  Level FlightAware ADS-B
Sat 02:29:44 AM 50.3310 -52.2500 66° East 525 604 33,000  Level FlightAware ADS-B
Sat 02:30:20 AM 50.3610 -52.1430 66° East 525 604 33,000  Level FlightAware ADS-B
Sat 02:30:56 AM 50.3910 -52.0370 66° East 525 604 33,000  Level FlightAware ADS-B
Sat 02:31:32 AM 50.4210 -51.9300 66° East 525 604 33,000  Level FlightAware ADS-B
Sat 02:32:08 AM 50.4510 -51.8240 66° East 525 604 33,000  Level FlightAware ADS-B
Sat 02:32:44 AM 50.4820 -51.7170 65° Northeast 525 604 33,000  Level FlightAware ADS-B
Sat 02:33:21 AM 50.5130 -51.6070 66° East 525 604 33,000  Level FlightAware ADS-B
Sat 02:33:57 AM 50.5430 -51.5000 66° East 525 604 33,000  Level FlightAware ADS-B
Sat 02:34:33 AM 50.5730 -51.3930 66° East 525 604 33,000  Level FlightAware ADS-B
Sat 02:35:09 AM 50.6030 -51.2860 66° East 525 604 33,000  Level FlightAware ADS-B
Sat 02:35:45 AM 50.6340 -51.1790 65° Northeast 525 604 33,000  Level FlightAware ADS-B
Sat 02:36:22 AM 50.6650 -51.0690 66° East 525 604 33,000  Level FlightAware ADS-B
Sat 02:36:59 AM 50.6960 -50.9590 66° East 525 604 33,000  Level FlightAware ADS-B
Sat 02:37:36 AM 50.7270 -50.8490 66° East 525 604 33,000  Level FlightAware ADS-B
Sat 02:38:12 AM 50.7570 -50.7420 66° East 525 604 33,000  Level FlightAware ADS-B
Sat 02:38:46 AM 50.9167 -50.2167 66° East 530 610 33,000  Level Moncton Center
Sat 02:40:35 AM 51.0167 -49.8167 68° East 520 598 33,000  Level Gander Center
Sat 02:41:35 AM 51.0333 -49.5667 84° East 520 598 33,000  Level Gander Center
Sat 02:43:00 AM 51.0000 -50.0000 77° East 527 606 33,000  Level ETMS Enhanced Traffic Management System
Sat 02:49:00 AM 51.2791 -47.9460 79° East 527 606 33,000  Level FlightAware Transoceanic
Sat 02:50:00 AM 51.3079 -47.7163 79° East 527 606 33,000  Level FlightAware Transoceanic
Sat 02:51:00 AM 51.3363 -47.4863 79° East 527 606 33,000  Level FlightAware Transoceanic
Sat 02:52:00 AM 51.3641 -47.2560 79° East 527 606 33,000  Level FlightAware Transoceanic
Sat 02:53:00 AM 51.3916 -47.0255 79° East 527 606 33,000  Level FlightAware Transoceanic
Sat 02:54:00 AM 51.4185 -46.7946 79° East 527 606 33,000  Level FlightAware Transoceanic
Sat 02:55:00 AM 51.4451 -46.5635 80° East 527 606 33,000  Level FlightAware Transoceanic
Sat 02:56:00 AM 51.4711 -46.3321 80° East 527 606 33,000  Level FlightAware Transoceanic
Sat 02:57:00 AM 51.4968 -46.1005 80° East 527 606 33,000  Level FlightAware Transoceanic
Sat 02:58:00 AM 51.5219 -45.8686 80° East 527 606 33,000  Level FlightAware Transoceanic
Sat 02:59:00 AM 51.5466 -45.6365 80° East 527 606 33,000  Level FlightAware Transoceanic
Sat 03:00:00 AM 51.5709 -45.4040 81° East 527 606 33,000  Level FlightAware Transoceanic
Sat 03:01:00 AM 51.5947 -45.1714 81° East 527 606 33,000  Level FlightAware Transoceanic
Sat 03:02:00 AM 51.6180 -44.9385 81° East 527 606 33,000  Level FlightAware Transoceanic
Sat 03:03:00 AM 51.6408 -44.7054 81° East 527 606 33,000  Level FlightAware Transoceanic
Sat 03:04:00 AM 51.6632 -44.4720 81° East 527 606 33,000  Level FlightAware Transoceanic
Sat 03:05:00 AM 51.6852 -44.2385 81° East 527 606 33,000  Level FlightAware Transoceanic
Sat 03:06:00 AM 51.7066 -44.0047 82° East 527 606 33,000  Level FlightAware Transoceanic
Sat 03:07:00 AM 51.7276 -43.7706 82° East 527 606 33,000  Level FlightAware Transoceanic
Sat 03:08:00 AM 51.7482 -43.5364 82° East 527 606 33,000  Level FlightAware Transoceanic
Sat 03:09:00 AM 51.7683 -43.3019 82° East 527 606 33,000  Level FlightAware Transoceanic
Sat 03:10:00 AM 51.7879 -43.0673 82° East 527 606 33,000  Level FlightAware Transoceanic
Sat 03:11:00 AM 51.8070 -42.8324 83° East 527 606 33,000  Level FlightAware Transoceanic
Sat 03:12:00 AM 51.8257 -42.5973 83° East 527 606 33,000  Level FlightAware Transoceanic
Sat 03:13:00 AM 51.8439 -42.3621 83° East 527 606 33,000  Level FlightAware Transoceanic
Sat 03:14:00 AM 51.8616 -42.1266 83° East 527 606 33,000  Level FlightAware Transoceanic
Sat 03:15:00 AM 51.8789 -41.8910 83° East 527 606 33,000  Level FlightAware Transoceanic
Sat 03:16:00 AM 51.8957 -41.6552 84° East 527 606 33,000  Level FlightAware Transoceanic
Sat 03:17:00 AM 51.9120 -41.4192 84° East 527 606 33,000  Level FlightAware Transoceanic
Sat 03:18:00 AM 51.9278 -41.1831 84° East 527 606 33,000  Level FlightAware Transoceanic
Sat 03:19:00 AM 51.9432 -40.9468 84° East 527 606 33,000  Level FlightAware Transoceanic
Sat 03:20:00 AM 51.9581 -40.7103 84° East 527 606 33,000  Level FlightAware Transoceanic
Sat 03:21:00 AM 51.9726 -40.4737 84° East 527 606 33,000  Level FlightAware Transoceanic
Sat 03:22:00 AM 51.9865 -40.2369 85° East 527 606 33,000  Level FlightAware Transoceanic
Sat 03:23:00 AM 52.0005 -39.9911 85° East  Level FlightAware Approximate
Sat 03:24:00 AM 52.0025 -39.9827 77° East  Level FlightAware Approximate
Sat 03:25:00 AM 52.0371 -39.7422 77° East  Level FlightAware Approximate
Sat 03:26:00 AM 52.0713 -39.5014 77° East  Level FlightAware Approximate
Sat 03:26:00 AM 52.0000 -40.0000 77° East 528 608 33,000  Level ETMS Enhanced Traffic Management System
Sat 03:27:00 AM 52.1049 -39.2602 77° East  Level FlightAware Approximate
Sat 03:28:00 AM 52.1381 -39.0186 77° East  Level FlightAware Approximate
Sat 03:29:00 AM 52.1707 -38.7767 77° East  Level FlightAware Approximate
Sat 03:30:00 AM 52.2029 -38.5344 78° East  Level FlightAware Approximate
Sat 03:31:00 AM 52.2345 -38.2918 78° East  Level FlightAware Approximate
Sat 03:32:00 AM 52.2549 -38.1331 78° East 528 608 33,000  Level FlightAware Transoceanic
Sat 03:33:00 AM 52.2847 -37.8983 78° East 528 608 33,000  Level FlightAware Transoceanic
Sat 03:34:00 AM 52.3140 -37.6631 79° East 528 608 33,000  Level FlightAware Transoceanic
Sat 03:35:00 AM 52.3429 -37.4276 79° East 528 608 33,000  Level FlightAware Transoceanic
Sat 03:36:00 AM 52.3713 -37.1919 79° East 528 608 33,000  Level FlightAware Transoceanic
Sat 03:37:00 AM 52.3992 -36.9558 79° East 528 608 33,000  Level FlightAware Transoceanic
Sat 03:38:00 AM 52.4266 -36.7195 79° East 528 608 33,000  Level FlightAware Transoceanic
Sat 03:39:00 AM 52.4536 -36.4828 80° East 528 608 33,000  Level FlightAware Transoceanic
Sat 03:40:00 AM 52.4801 -36.2459 80° East 528 608 33,000  Level FlightAware Transoceanic
Sat 03:41:00 AM 52.5061 -36.0086 80° East 528 608 33,000  Level FlightAware Transoceanic
Sat 03:42:00 AM 52.5317 -35.7711 80° East 528 608 33,000  Level FlightAware Transoceanic
Sat 03:43:00 AM 52.5567 -35.5334 80° East 528 608 33,000  Level FlightAware Transoceanic
Sat 03:44:00 AM 52.5813 -35.2953 80° East 528 608 33,000  Level FlightAware Transoceanic
Sat 03:45:00 AM 52.6054 -35.0570 81° East 528 608 33,000  Level FlightAware Transoceanic
Sat 03:46:00 AM 52.6291 -34.8184 81° East 528 608 33,000  Level FlightAware Transoceanic
Sat 03:47:00 AM 52.6522 -34.5796 81° East 528 608 33,000  Level FlightAware Transoceanic
Sat 03:48:00 AM 52.6749 -34.3405 81° East 528 608 33,000  Level FlightAware Transoceanic
Sat 03:49:00 AM 52.6971 -34.1012 81° East 528 608 33,000  Level FlightAware Transoceanic
Sat 03:50:00 AM 52.7188 -33.8617 82° East 528 608 33,000  Level FlightAware Transoceanic
Sat 03:51:00 AM 52.7401 -33.6219 82° East 528 608 33,000  Level FlightAware Transoceanic
Sat 03:52:00 AM 52.7608 -33.3818 82° East 528 608 33,000  Level FlightAware Transoceanic
Sat 03:53:00 AM 52.7811 -33.1416 82° East 528 608 33,000  Level FlightAware Transoceanic
Sat 03:54:00 AM 52.8008 -32.9011 82° East 528 608 33,000  Level FlightAware Transoceanic
Sat 03:55:00 AM 52.8201 -32.6604 83° East 528 608 33,000  Level FlightAware Transoceanic
Sat 03:56:00 AM 52.8389 -32.4195 83° East 528 608 33,000  Level FlightAware Transoceanic
Sat 03:57:00 AM 52.8572 -32.1784 83° East 528 608 33,000  Level FlightAware Transoceanic
Sat 03:58:00 AM 52.8751 -31.9371 83° East 528 608 33,000  Level FlightAware Transoceanic
Sat 03:59:00 AM 52.8924 -31.6956 83° East 528 608 33,000  Level FlightAware Transoceanic
Sat 04:00:00 AM 52.9092 -31.4539 84° East 528 608 33,000  Level FlightAware Transoceanic
Sat 04:01:00 AM 52.9256 -31.2120 84° East 528 608 33,000  Level FlightAware Transoceanic
Sat 04:02:00 AM 52.9415 -30.9699 84° East 528 608 33,000  Level FlightAware Transoceanic
Sat 04:03:00 AM 52.9568 -30.7277 84° East 528 608 33,000  Level FlightAware Transoceanic
Sat 04:04:00 AM 52.9717 -30.4853 84° East 528 608 33,000  Level FlightAware Transoceanic
Sat 04:05:00 AM 52.9861 -30.2427 84° East 528 608 33,000  Level FlightAware Transoceanic
Sat 04:06:00 AM 53.0005 -29.9914 84° East  Level FlightAware Approximate
Sat 04:07:00 AM 53.0007 -29.9827 86° East  Level FlightAware Approximate
Sat 04:08:00 AM 53.0110 -29.7307 86° East  Level FlightAware Approximate
Sat 04:08:21 AM 53.0000 -30.0000 86° East 569 655 33,000  Level ETMS Enhanced Traffic Management System
Sat 04:09:00 AM 53.0208 -29.4786 86° East  Level FlightAware Approximate
Sat 04:10:00 AM 53.0300 -29.2264 86° East  Level FlightAware Approximate
Sat 04:11:00 AM 53.0387 -28.9741 87° East  Level FlightAware Approximate
Sat 04:12:00 AM 53.0468 -28.7217 87° East  Level FlightAware Approximate
Sat 04:13:00 AM 53.0545 -28.4692 87° East  Level FlightAware Approximate
Sat 04:14:00 AM 53.0697 -27.8979 88° East 569 655 33,000  Level FlightAware Transoceanic
Sat 04:15:00 AM 53.0758 -27.6347 88° East 569 655 33,000  Level FlightAware Transoceanic
Sat 04:16:00 AM 53.0814 -27.3714 88° East 569 655 33,000  Level FlightAware Transoceanic
Sat 04:17:00 AM 53.0863 -27.1081 88° East 569 655 33,000  Level FlightAware Transoceanic
Sat 04:18:00 AM 53.0907 -26.8447 89° East 569 655 33,000  Level FlightAware Transoceanic
Sat 04:19:00 AM 53.0945 -26.5813 89° East 569 655 33,000  Level FlightAware Transoceanic
Sat 04:20:00 AM 53.0977 -26.3178 89° East 569 655 33,000  Level FlightAware Transoceanic
Sat 04:21:00 AM 53.1003 -26.0543 89° East 569 655 33,000  Level FlightAware Transoceanic
Sat 04:22:00 AM 53.1023 -25.7907 89° East 569 655 33,000  Level FlightAware Transoceanic
Sat 04:23:00 AM 53.1038 -25.5272 90° East 569 655 33,000  Level FlightAware Transoceanic
Sat 04:24:00 AM 53.1046 -25.2636 90° East 569 655 33,000  Level FlightAware Transoceanic
Sat 04:25:00 AM 53.1049 -25.0000 90° East 569 655 33,000  Level FlightAware Transoceanic
Sat 04:26:00 AM 53.1046 -24.7364 90° East 569 655 33,000  Level FlightAware Transoceanic
Sat 04:27:00 AM 53.1038 -24.4728 90° East 569 655 33,000  Level FlightAware Transoceanic
Sat 04:28:00 AM 53.1023 -24.2093 91° East 569 655 33,000  Level FlightAware Transoceanic
Sat 04:29:00 AM 53.1003 -23.9457 91° East 569 655 33,000  Level FlightAware Transoceanic
Sat 04:30:00 AM 53.0977 -23.6822 91° East 569 655 33,000  Level FlightAware Transoceanic
Sat 04:31:00 AM 53.0945 -23.4187 91° East 569 655 33,000  Level FlightAware Transoceanic
Sat 04:32:00 AM 53.0907 -23.1553 91° East 569 655 33,000  Level FlightAware Transoceanic
Sat 04:33:00 AM 53.0863 -22.8919 92° East 569 655 33,000  Level FlightAware Transoceanic
Sat 04:34:00 AM 53.0814 -22.6286 92° East 569 655 33,000  Level FlightAware Transoceanic
Sat 04:35:00 AM 53.0758 -22.3653 92° East 569 655 33,000  Level FlightAware Transoceanic
Sat 04:36:00 AM 53.0697 -22.1021 92° East 569 655 33,000  Level FlightAware Transoceanic
Sat 04:37:00 AM 53.0630 -21.8390 93° East 569 655 33,000  Level FlightAware Transoceanic
Sat 04:38:00 AM 53.0558 -21.5760 93° East 569 655 33,000  Level FlightAware Transoceanic
Sat 04:39:00 AM 53.0479 -21.3131 93° East 569 655 33,000  Level FlightAware Transoceanic
Sat 04:40:00 AM 53.0395 -21.0502 93° East 569 655 33,000  Level FlightAware Transoceanic
Sat 04:41:00 AM 53.0305 -20.7875 93° East 569 655 33,000  Level FlightAware Transoceanic
Sat 04:42:00 AM 53.0209 -20.5249 94° East 569 655 33,000  Level FlightAware Transoceanic
Sat 04:43:00 AM 53.0107 -20.2624 94° East 569 655 33,000 76 Level FlightAware Transoceanic
Sat 04:44:00 AM 53.0004 -20.0104 94° East  Level FlightAware Approximate
Sat 04:45:00 AM 52.9895 -19.7585 94° East  Level FlightAware Approximate
Sat 04:46:00 AM 52.9993 -19.7727 90° East  Level FlightAware Approximate
Sat 04:47:00 AM 52.9980 -19.5246 90° East  Level FlightAware Approximate
Sat 04:48:00 AM 52.9961 -19.2764 91° East  Level FlightAware Approximate
Sat 04:49:00 AM 52.9938 -19.0284 91° East  Level FlightAware Approximate
Sat 04:50:00 AM 52.9909 -18.7803 91° East  Level FlightAware Approximate
Sat 04:51:00 AM 52.9876 -18.5323 91° East  Level FlightAware Approximate
Sat 04:52:00 AM 52.9837 -18.2843 91° East  Level FlightAware Approximate
Sat 04:53:00 AM 52.9793 -18.0364 92° East  Level FlightAware Approximate
Sat 04:54:00 AM 52.9744 -17.7885 92° East  Level FlightAware Approximate
Sat 04:55:00 AM 52.9689 -17.5407 92° East  Level FlightAware Approximate
Sat 04:56:00 AM 52.9630 -17.2929 92° East  Level FlightAware Approximate
Sat 04:57:00 AM 52.9565 -17.0453 92° East  Level FlightAware Approximate
Sat 04:58:00 AM 52.9495 -16.7977 93° East  Level FlightAware Approximate
Sat 04:59:00 AM 52.9421 -16.5501 93° East  Level FlightAware Approximate
Sat 05:00:00 AM 52.9340 -16.3027 93° East  Level FlightAware Approximate
Sat 05:01:00 AM 52.9255 -16.0554 93° East  Level FlightAware Approximate
Sat 05:02:00 AM 52.9165 -15.8081 93° East  Level FlightAware Approximate
Sat 05:03:00 AM 52.9069 -15.5610 94° East  Level FlightAware Approximate
Sat 05:04:00 AM 52.8969 -15.3140 94° East  Level FlightAware Approximate
Sat 05:05:00 AM 52.8863 -15.0671 94° East  Level FlightAware Approximate
Sat 05:06:00 AM 52.8759 -14.8202 94° East  Level FlightAware Approximate
Sat 05:07:00 AM 52.8652 -14.5735 94° East  Level FlightAware Approximate
Sat 05:08:00 AM 52.8540 -14.3268 94° East  Level FlightAware Approximate
Sat 05:08:09 AM 52.8340 -13.0680 94° East 593 682 35,000  Level FlightAware ADS-B
Sat 05:08:44 AM 52.8210 -12.9250 98° East 592 681 35,000  Level FlightAware ADS-B
Sat 05:09:16 AM 52.8090 -12.7880 98° East 503 579 35,000  Level FlightAware ADS-B
Sat 05:09:54 AM 52.7930 -12.6010 98° East 592 681 35,000  Level FlightAware ADS-B
Sat 05:10:29 AM 52.7790 -12.4410 98° East 593 682 35,000  Level FlightAware ADS-B
Sat 05:11:04 AM 52.7680 -12.2900 97° East 592 681 35,000  Level FlightAware ADS-B
Sat 05:11:39 AM 52.7550 -12.1270 97° East 593 682 35,000  Level FlightAware ADS-B
Sat 05:12:10 AM 52.7460 -11.9940 96° East 595 685 35,000  Level FlightAware ADS-B
Sat 05:12:49 AM 52.7330 -11.8140 97° East 594 684 35,000  Level FlightAware ADS-B
Sat 05:13:25 AM 52.7200 -11.6540 98° East 594 684 35,000  Level FlightAware ADS-B
Sat 05:13:54 AM 52.7100 -11.5220 97° East 595 685 35,000  Level FlightAware ADS-B
Sat 05:14:39 AM 52.6930 -11.3220 98° East 593 682 35,000  Level FlightAware ADS-B
Sat 05:15:14 AM 52.6800 -11.1720 98° East 592 681 35,000  Level FlightAware ADS-B
Sat 05:15:50 AM 52.6650 -11.0090 99° East 590 679 35,000  Level FlightAware ADS-B
Sat 05:16:31 AM 52.6490 -10.8380 99° East 589 678 35,000  Level FlightAware ADS-B
Sat 05:17:13 AM 52.6300 -10.6360 99° East 588 677 35,000  Level FlightAware ADS-B
Sat 05:17:48 AM 52.6150 -10.4780 99° East 590 679 35,000  Level FlightAware ADS-B
Sat 05:18:23 AM 52.6000 -10.3320 100° East 591 680 35,000  Level FlightAware ADS-B
Sat 05:18:58 AM 52.5860 -10.1820 99° East 591 680 35,000  Level FlightAware ADS-B
Sat 05:19:43 AM 52.5650 -9.9810 100° East 590 679 35,000  Level FlightAware ADS-B
Sat 05:20:27 AM 52.5440 -9.7740 99° East 589 678 35,000  Level FlightAware ADS-B
Sat 05:20:57 AM 52.5310 -9.6440 99° East 588 677 35,000  Level FlightAware ADS-B
Sat 05:21:32 AM 52.5150 -9.4910 100° East 588 677 35,000  Level FlightAware ADS-B
Sat 05:22:12 AM 52.4960 -9.3130 100° East 588 677 35,000  Level FlightAware ADS-B
Sat 05:22:42 AM 52.4820 -9.1830 100° East 588 677 35,000  Level FlightAware ADS-B
Sat 05:23:17 AM 52.4650 -9.0260 100° East 587 676 35,000  Level FlightAware ADS-B
Sat 05:23:53 AM 52.4480 -8.8730 100° East 587 676 35,000  Level FlightAware ADS-B
Sat 05:23:56 AM 52.4789 -8.6934 100° East 494 568 35,000  Level FlightAware UK
Sat 05:24:26 AM 52.4640 -8.5626 100° East 492 566 35,000  Level FlightAware UK
Sat 05:24:32 AM 52.4290 -8.6980 100° East 587 676 35,000  Level FlightAware ADS-B
Sat 05:25:03 AM 52.4140 -8.5680 101° East 586 674 35,000  Level FlightAware ADS-B
Sat 05:25:37 AM 52.3970 -8.4140 100° East 585 673 35,000  Level FlightAware ADS-B
Sat 05:26:17 AM 52.3770 -8.2380 100° East 584 672 35,000  Level FlightAware ADS-B
Sat 05:26:47 AM 52.3620 -8.1130 101° East 584 672 35,000  Level FlightAware ADS-B
Sat 05:27:23 AM 52.3440 -7.9570 101° East 584 672 35,000  Level FlightAware ADS-B
Sat 05:27:56 AM 52.3542 -7.6515 101° East 492 566 35,000  Level FlightAware UK
Sat 05:27:58 AM 52.3260 -7.8050 101° East 584 672 35,000  Level FlightAware ADS-B
Sat 05:28:37 AM 52.3050 -7.6350 101° East 584 672 35,000  Level FlightAware ADS-B
Sat 05:29:07 AM 52.2890 -7.5040 101° East 582 670 35,000  Level FlightAware ADS-B
Sat 05:29:42 AM 52.2710 -7.3520 101° East 581 669 35,000  Level FlightAware ADS-B
Sat 05:30:17 AM 52.2520 -7.2030 102° East 580 667 35,000  Level FlightAware ADS-B
Sat 05:30:57 AM 52.2300 -7.0310 102° East 581 669 35,000  Level FlightAware ADS-B
Sat 05:31:28 AM 52.2140 -6.9020 101° East 580 667 35,000  Level FlightAware ADS-B
Sat 05:32:02 AM 52.1950 -6.7580 101° East 577 664 35,000  Level FlightAware ADS-B
Sat 05:32:03 AM 52.2176 -6.6019 101° East 492 566 35,000  Level FlightAware UK
Sat 05:32:33 AM 52.2005 -6.4750 101° East 492 566 35,000  Level FlightAware UK
Sat 05:32:37 AM 52.1750 -6.6050 101° East 577 664 35,000  Level FlightAware ADS-B
Sat 05:33:12 AM 52.1560 -6.4550 102° East 577 664 35,000  Level FlightAware ADS-B
Sat 05:33:47 AM 52.1360 -6.3060 102° East 576 663 35,000  Level FlightAware ADS-B
Sat 05:34:22 AM 52.1160 -6.1630 103° East 575 662 35,000  Level FlightAware ADS-B
Sat 05:34:57 AM 52.0980 -6.0150 101° East 577 664 35,000  Level FlightAware ADS-B
Sat 05:35:33 AM 52.1006 -5.7142 101° East 492 566 35,000  Level FlightAware UK
Sat 05:35:33 AM 52.0820 -5.8600 101° East 577 664 35,000  Level FlightAware ADS-B
Sat 05:36:03 AM 52.0867 -5.5871 101° East 492 566 35,000  Level FlightAware UK
Sat 05:36:12 AM 52.0640 -5.6900 101° East 576 663 35,000  Level FlightAware ADS-B
Sat 05:36:42 AM 52.0500 -5.5620 100° East 576 663 35,000  Level FlightAware ADS-B
Sat 05:37:22 AM 52.0300 -5.3910 101° East 574 661 35,000  Level FlightAware ADS-B
Sat 05:37:52 AM 52.0160 -5.2680 100° East 574 661 35,000  Level FlightAware ADS-B
Sat 05:38:27 AM 51.9980 -5.1180 101° East 574 661 35,000  Level FlightAware ADS-B
Sat 05:39:02 AM 51.9810 -4.9750 101° East 576 663 35,000  Level FlightAware ADS-B
Sat 05:39:38 AM 51.9630 -4.8210 101° East 576 663 35,000  Level FlightAware ADS-B
Sat 05:40:10 AM 51.9470 -4.6860 101° East 575 662 35,000  Level FlightAware ADS-B
Sat 05:40:46 AM 51.9280 -4.5360 101° East 575 662 35,000  Level FlightAware ADS-B
Sat 05:40:51 AM 51.9397 -4.3729 101° East 492 566 35,000  Level FlightAware UK
Sat 05:41:27 AM 51.9070 -4.3600 101° East 574 661 35,000  Level FlightAware ADS-B
Sat 05:42:01 AM 51.8878 -4.2104 102° East 575 662 35,000  Level FlightAware ADS-B
Sat 05:42:32 AM 51.8717 -4.0828 102° East 574 661 35,000  Level FlightAware ADS-B
Sat 05:43:03 AM 51.8547 -3.9511 102° East 573 659 35,000  Level FlightAware ADS-B
Sat 05:43:33 AM 51.8383 -3.8251 102° East 573 659 35,000  Level FlightAware ADS-B
Sat 05:44:04 AM 51.8216 -3.6967 102° East 573 659 35,000  Level FlightAware ADS-B
Sat 05:44:36 AM 51.8043 -3.5640 102° East 572 658 35,000  Level FlightAware ADS-B
Sat 05:45:07 AM 51.7870 -3.4316 102° East 572 658 35,000  Level FlightAware ADS-B
Sat 05:45:39 AM 51.7694 -3.2978 102° East 572 658 35,000  Level FlightAware ADS-B
Sat 05:46:10 AM 51.7522 -3.1695 102° East 571 657 35,000  Level FlightAware ADS-B
Sat 05:46:42 AM 51.7344 -3.0380 102° East 570 656 35,000  Level FlightAware ADS-B
Sat 05:47:14 AM 51.7163 -2.9068 103° East 569 655 35,000  Level FlightAware ADS-B
Sat 05:47:44 AM 51.6989 -2.7825 103° East 569 655 35,000  Level FlightAware ADS-B
Sat 05:48:14 AM 51.6813 -2.6581 103° East 568 654 35,000  Level FlightAware ADS-B
Sat 05:48:46 AM 51.6630 -2.5280 103° East 568 654 35,000  Level FlightAware ADS-B
Sat 05:49:17 AM 51.6471 -2.3959 101° East 567 652 35,000  Level FlightAware ADS-B
Sat 05:49:51 AM 51.6324 -2.2556 100° East 567 652 35,000  Level FlightAware ADS-B
Sat 05:50:24 AM 51.6192 -2.1198 99° East 568 654 35,000  Level FlightAware ADS-B
Sat 05:50:54 AM 51.6072 -1.9948 99° East 566 651 35,000  Level FlightAware ADS-B
Sat 05:51:26 AM 51.5948 -1.8620 99° East 567 652 35,000  Level FlightAware ADS-B
Sat 05:51:56 AM 51.5830 -1.7372 99° East 566 651 35,000  Level FlightAware ADS-B
Sat 05:52:27 AM 51.5708 -1.6084 99° East 567 652 35,000  Level FlightAware ADS-B
Sat 05:52:58 AM 51.5584 -1.4779 99° East 568 654 35,000  Level FlightAware ADS-B
Sat 05:53:28 AM 51.5462 -1.3534 99° East 568 654 35,000  Level FlightAware ADS-B
Sat 05:54:01 AM 51.5328 -1.2174 99° East 568 654 35,000  Level FlightAware ADS-B
Sat 05:54:32 AM 51.5200 -1.0898 99° East 569 655 35,000  Level FlightAware ADS-B
Sat 05:55:02 AM 51.5071 -0.9643 99° East 570 656 35,000  Level FlightAware ADS-B
Sat 05:55:33 AM 51.4932 -0.8324 100° East 569 655 35,000  Level FlightAware ADS-B
Sat 05:56:06 AM 51.4786 -0.6959 100° East 569 655 35,000  Level FlightAware ADS-B
Sat 05:56:36 AM 51.4652 -0.5710 100° East 569 655 35,000  Level FlightAware ADS-B
Sat 05:57:08 AM 51.4510 -0.4418 100° East 569 655 35,000  Level FlightAware ADS-B
Sat 05:57:38 AM 51.4374 -0.3173 100° East 569 655 35,000  Level FlightAware ADS-B
Sat 05:58:11 AM 51.4226 -0.1804 100° East 569 655 35,000  Level FlightAware ADS-B
Sat 05:58:43 AM 51.4080 -0.0471 100° East 568 654 35,000  Level FlightAware ADS-B
Sat 05:59:15 AM 51.3931 0.0877 100° East 567 652 35,000  Level FlightAware ADS-B
Sat 05:59:49 AM 51.3775 0.2264 100° East 567 652 35,000  Level FlightAware ADS-B
Sat 06:00:20 AM 51.3631 0.3540 100° East 566 651 35,000  Level FlightAware ADS-B
Sat 06:00:50 AM 51.3488 0.4774 100° East 566 651 35,000  Level FlightAware ADS-B
Sat 06:01:22 AM 51.3335 0.6075 101° East 567 652 35,000  Level FlightAware ADS-B
Sat 06:01:53 AM 51.3184 0.7370 101° East 566 651 35,000  Level FlightAware ADS-B
Sat 06:02:23 AM 51.3037 0.8601 101° East 566 651 35,000  Level FlightAware ADS-B
Sat 06:02:54 AM 51.2889 0.9840 101° East 566 651 35,000  Level FlightAware ADS-B
Sat 06:03:39 AM 51.2660 1.1660 101° East 566 651 35,000  Level FlightAware ADS-B
Sat 06:04:19 AM 51.2370 1.3220 106° East 567 652 35,000  Level FlightAware ADS-B
Sat 06:05:01 AM 51.1930 1.4890 113° Southeast 565 650 35,000  Level FlightAware ADS-B
Sat 06:05:36 AM 51.1560 1.6200 114° Southeast 563 648 35,000  Level FlightAware ADS-B
Sat 06:06:07 AM 51.1240 1.8747 114° Southeast 490 564 35,000  Level FlightAware UK
Sat 06:06:10 AM 51.1190 1.7480 114° Southeast 563 648 35,000  Level FlightAware ADS-B
Sat 06:06:46 AM 51.0780 1.8870 115° Southeast 563 648 35,000  Level FlightAware ADS-B
Sat 06:07:19 AM 51.0420 2.0100 115° Southeast 561 646 35,000  Level FlightAware ADS-B
Sat 06:07:54 AM 51.0040 2.1390 115° Southeast 562 647 35,000  Level FlightAware ADS-B
Sat 06:08:29 AM 50.9660 2.2690 115° Southeast 561 646 35,000  Level FlightAware ADS-B
Sat 06:09:01 AM 50.9308 2.5291 115° Southeast 490 564 35,000  Level FlightAware UK
Sat 06:09:05 AM 50.9250 2.4050 115° Southeast 561 646 35,000  Level FlightAware ADS-B
Sat 06:09:38 AM 50.8910 2.5190 115° Southeast 562 647 35,000  Level FlightAware ADS-B
Sat 06:10:14 AM 50.8510 2.6510 116° Southeast 562 647 35,000  Level FlightAware ADS-B
Sat 06:10:49 AM 50.8130 2.7760 116° Southeast 562 647 35,000  Level FlightAware ADS-B
Sat 06:11:25 AM 50.7730 2.9090 115° Southeast 561 646 35,000  Level FlightAware ADS-B
Sat 06:12:00 AM 50.7310 3.0460 115° Southeast 561 646 35,000  Level FlightAware ADS-B
Sat 06:12:07 AM 50.7202 3.2233 115° Southeast 490 564 35,000  Level FlightAware UK
Sat 06:12:42 AM 50.6820 3.2030 116° Southeast 561 646 35,000  Level FlightAware ADS-B
Sat 06:13:18 AM 50.6410 3.3360 116° Southeast 560 644 35,000  Level FlightAware ADS-B
Sat 06:13:54 AM 50.6000 3.4670 116° Southeast 560 644 35,000  Level FlightAware ADS-B
Sat 06:14:26 AM 50.5640 3.5850 116° Southeast 560 644 35,000  Level FlightAware ADS-B
Sat 06:15:02 AM 50.5230 3.7150 116° Southeast 560 644 35,000  Level FlightAware ADS-B
Sat 06:15:38 AM 50.4820 3.8460 116° Southeast 559 643 35,000  Level FlightAware ADS-B
Sat 06:16:11 AM 50.4430 3.9690 116° Southeast 559 643 35,000  Level FlightAware ADS-B
Sat 06:16:44 AM 50.4013 4.2380 116° Southeast 1 1 35,000  Level FlightAware UK
Sat 06:16:47 AM 50.4030 4.0960 116° Southeast 559 643 35,000  Level FlightAware ADS-B
Sat 06:17:23 AM 50.3610 4.2270 117° Southeast 558 642 35,000  Level FlightAware ADS-B
Sat 06:17:59 AM 50.3190 4.3600 116° Southeast 558 642 35,000  Level FlightAware ADS-B
Sat 06:18:33 AM 50.2800 4.4810 117° Southeast 558 642 35,000  Level FlightAware ADS-B
Sat 06:19:09 AM 50.2370 4.6120 117° Southeast 557 641 35,000  Level FlightAware ADS-B
Sat 06:19:41 AM 50.2010 4.7210 117° Southeast 556 640 35,000  Level FlightAware ADS-B
Sat 06:20:16 AM 50.1590 4.8490 117° Southeast 555 639 35,000  Level FlightAware ADS-B
Sat 06:20:51 AM 50.1180 4.9710 118° Southeast 555 639 35,000  Level FlightAware ADS-B
Sat 06:21:27 AM 50.0740 5.1010 118° Southeast 555 639 35,000  Level FlightAware ADS-B
Sat 06:22:03 AM 50.0320 5.2280 117° Southeast 555 639 35,000  Level FlightAware ADS-B
Sat 06:22:42 AM 49.9850 5.3690 117° Southeast 556 640 35,000  Level FlightAware ADS-B
Sat 06:23:18 AM 49.9440 5.4910 118° Southeast 557 641 35,000  Level FlightAware ADS-B
Sat 06:23:52 AM 49.9050 5.6060 118° Southeast 557 641 35,000  Level FlightAware ADS-B
Sat 06:24:30 AM 49.8600 5.7400 117° Southeast 558 642 35,000  Level FlightAware ADS-B
Sat 06:25:02 AM 49.8200 5.8570 118° Southeast 557 641 35,000  Level FlightAware ADS-B
Sat 06:25:38 AM 49.7770 5.9830 118° Southeast 556 640 35,000  Level FlightAware ADS-B
Sat 06:26:20 AM 49.7280 6.1270 118° Southeast 557 641 35,000  Level FlightAware ADS-B
Sat 06:26:56 AM 49.6810 6.2620 118° Southeast 556 640 35,000  Level FlightAware ADS-B
Sat 06:27:30 AM 49.6390 6.3820 118° Southeast 557 641 35,000 194 Level FlightAware ADS-B
Sat 06:27:58 AM 49.6040 6.4810 119° Southeast 557 641 35,200 857 Climbing FlightAware ADS-B
Sat 06:28:40 AM 49.5540 6.6240 118° Southeast 557 641 36,000 923 Climbing FlightAware ADS-B
Sat 06:29:16 AM 49.5080 6.7500 119° Southeast 563 648 36,400 750 Climbing FlightAware ADS-B
Sat 06:29:52 AM 49.4580 6.8730 122° Southeast 565 650 36,900 529 Climbing FlightAware ADS-B
Sat 06:30:24 AM 49.4130 6.9760 124° Southeast 569 655 37,000 88 Climbing FlightAware ADS-B
Sat 06:31:00 AM 49.3570 7.0990 125° Southeast 569 655 37,000  Level FlightAware ADS-B
Sat 06:31:37 AM 49.3030 7.2190 125° Southeast 569 655 37,000  Level FlightAware ADS-B
Sat 06:32:08 AM 49.2550 7.3210 126° Southeast 568 654 37,000  Level FlightAware ADS-B
Sat 06:32:45 AM 49.2030 7.4310 126° Southeast 562 647 37,000  Level FlightAware ADS-B
Sat 06:33:20 AM 49.1550 7.5330 126° Southeast 562 647 37,000  Level FlightAware ADS-B
Sat 06:33:56 AM 49.0970 7.6560 126° Southeast 563 648 37,000  Level FlightAware ADS-B
Sat 06:34:30 AM 49.0400 7.7760 126° Southeast 562 647 37,000  Level FlightAware ADS-B
Sat 06:35:05 AM 48.9950 7.8680 127° Southeast 562 647 37,000  Level FlightAware ADS-B
Sat 06:35:40 AM 48.9380 7.9870 126° Southeast 562 647 37,000  Level FlightAware ADS-B
Sat 06:36:15 AM 48.8850 8.0980 126° Southeast 561 646 37,000  Level FlightAware ADS-B
Sat 06:36:51 AM 48.8320 8.2090 126° Southeast 560 644 37,000  Level FlightAware ADS-B
Sat 06:37:25 AM 48.7770 8.3210 127° Southeast 558 642 37,000  Level FlightAware ADS-B
Sat 06:38:00 AM 48.7240 8.4290 127° Southeast 558 642 37,000  Level FlightAware ADS-B
Sat 06:38:35 AM 48.6730 8.5330 127° Southeast 561 646 37,000  Level FlightAware ADS-B
Sat 06:39:10 AM 48.6130 8.6540 127° Southeast 560 644 37,000  Level FlightAware ADS-B
Sat 06:39:40 AM 48.5730 8.7360 126° Southeast 628 723 37,000  Level FlightAware ADS-B
Sat 06:40:16 AM 48.5180 8.8460 127° Southeast 557 641 37,000  Level FlightAware ADS-B
Sat 06:40:58 AM 48.4490 8.9690 130° Southeast 557 641 37,000  Level FlightAware ADS-B
Sat 06:41:31 AM 48.3820 9.0620 137° Southeast 558 642 37,000  Level FlightAware ADS-B
Sat 06:42:12 AM 48.3020 9.1580 141° Southeast 559 643 37,000  Level FlightAware ADS-B
Sat 06:42:51 AM 48.2180 9.2590 141° Southeast 557 641 37,000  Level FlightAware ADS-B
Sat 06:43:28 AM 48.1300 9.3650 141° Southeast 555 639 37,000  Level FlightAware ADS-B
Sat 06:44:02 AM 48.0640 9.4430 142° Southeast 553 636 37,000  Level FlightAware ADS-B
Sat 06:44:39 AM 48.0130 9.5040 141° Southeast 552 635 37,000  Level FlightAware ADS-B
Sat 06:45:23 AM 47.9020 9.6360 141° Southeast 541 623 37,000  Level FlightAware ADS-B
Sat 06:45:58 AM 47.8350 9.7150 142° Southeast 539 620 37,000  Level FlightAware ADS-B
Sat 06:46:32 AM 47.7640 9.7990 141° Southeast 542 624 37,000  Level FlightAware ADS-B
Sat 06:47:08 AM 47.7180 9.8530 142° Southeast 541 623 37,000  Level FlightAware ADS-B
Sat 06:47:52 AM 47.6080 9.9820 142° Southeast 539 620 37,000  Level FlightAware ADS-B
Sat 06:48:22 AM 47.5500 10.0490 142° Southeast 538 619 37,000  Level FlightAware ADS-B
Sat 06:48:57 AM 47.4870 10.1220 142° Southeast 538 619 37,000  Level FlightAware ADS-B
Sat 06:49:33 AM 47.4110 10.2080 143° Southeast 529 609 37,000  Level FlightAware ADS-B
Sat 06:50:08 AM 47.3440 10.2850 142° Southeast 528 608 37,000  Level FlightAware ADS-B
Sat 06:50:46 AM 47.2670 10.3730 142° Southeast 534 615 37,000  Level FlightAware ADS-B
Sat 06:51:23 AM 47.1960 10.4530 143° Southeast 531 611 37,000  Level FlightAware ADS-B
Sat 06:51:58 AM 47.1310 10.5260 143° Southeast 531 611 37,000  Level FlightAware ADS-B
Sat 06:52:38 AM 47.0540 10.6050 145° Southeast 533 613 37,000  Level FlightAware ADS-B
Sat 06:53:08 AM 46.9800 10.6550 155° Southeast 533 613 37,000  Level FlightAware ADS-B
Sat 06:53:48 AM 46.8890 10.7080 158° South 532 612 37,000  Level FlightAware ADS-B
Sat 06:54:23 AM 46.8120 10.7640 154° Southeast 529 609 37,000  Level FlightAware ADS-B
Sat 06:54:53 AM 46.7540 10.8260 144° Southeast 532 612 37,000  Level FlightAware ADS-B
Sat 06:55:33 AM 46.6810 10.9300 136° Southeast 533 613 37,000  Level FlightAware ADS-B
Sat 06:56:08 AM 46.6190 11.0220 134° Southeast 531 611 37,000  Level FlightAware ADS-B
Sat 06:56:38 AM 46.5690 11.0960 134° Southeast 530 610 37,000  Level FlightAware ADS-B
Sat 06:57:13 AM 46.5080 11.1880 134° Southeast 528 608 37,000  Level FlightAware ADS-B
Sat 06:57:53 AM 46.4480 11.2900 130° Southeast 531 611 37,000  Level FlightAware ADS-B
Sat 06:58:28 AM 46.3900 11.3920 129° Southeast 532 612 37,000  Level FlightAware ADS-B
Sat 06:58:58 AM 46.3440 11.4750 129° Southeast 532 612 37,000  Level FlightAware ADS-B
Sat 06:59:33 AM 46.2860 11.5750 130° Southeast 533 613 37,000  Level FlightAware ADS-B
Sat 07:00:13 AM 46.2240 11.6820 130° Southeast 533 613 37,000  Level FlightAware ADS-B
Sat 07:00:48 AM 46.1680 11.7790 130° Southeast 531 611 37,000  Level FlightAware ADS-B
Sat 07:01:23 AM 46.1140 11.8720 130° Southeast 530 610 37,000  Level FlightAware ADS-B
Sat 07:01:58 AM 46.0590 11.9660 130° Southeast 530 610 37,000  Level FlightAware ADS-B
Sat 07:02:33 AM 46.0010 12.0630 131° Southeast 530 610 37,000  Level FlightAware ADS-B
Sat 07:03:13 AM 45.9450 12.1620 129° Southeast 527 606 37,000  Level FlightAware ADS-B
Sat 07:03:48 AM 45.8910 12.2650 127° Southeast 521 600 37,000  Level FlightAware ADS-B
Sat 07:04:24 AM 45.8410 12.3630 126° Southeast 526 605 37,000  Level FlightAware ADS-B
Sat 07:04:55 AM 45.7920 12.4610 126° Southeast 526 605 37,000  Level FlightAware ADS-B
Sat 07:05:33 AM 45.7400 12.5660 125° Southeast 526 605 37,000  Level FlightAware ADS-B
Sat 07:06:08 AM 45.6910 12.6620 126° Southeast 527 606 37,000  Level FlightAware ADS-B
Sat 07:06:40 AM 45.6480 12.7490 125° Southeast 528 608 37,000  Level FlightAware ADS-B
Sat 07:07:13 AM 45.5990 12.8470 126° Southeast 528 608 37,000  Level FlightAware ADS-B
Sat 07:07:55 AM 45.5380 12.9660 126° Southeast 525 604 37,000  Level FlightAware ADS-B
Sat 07:08:25 AM 45.4950 13.0510 126° Southeast 527 606 37,000  Level FlightAware ADS-B
Sat 07:09:10 AM 45.4300 13.1780 126° Southeast 527 606 37,000  Level FlightAware ADS-B
Sat 07:09:55 AM 45.3630 13.3070 126° Southeast 527 606 37,000  Level FlightAware ADS-B
Sat 07:10:25 AM 45.3200 13.3900 126° Southeast 527 606 37,000  Level FlightAware ADS-B
Sat 07:11:05 AM 45.2640 13.4990 126° Southeast 527 606 37,000  Level FlightAware ADS-B
Sat 07:11:35 AM 45.2210 13.5840 126° Southeast 527 606 37,000  Level FlightAware ADS-B
Sat 07:12:15 AM 45.1600 13.7000 127° Southeast 525 604 37,000  Level FlightAware ADS-B
Sat 07:12:50 AM 45.1080 13.7950 128° Southeast 529 609 37,000  Level FlightAware ADS-B
Sat 07:13:20 AM 45.0700 13.8660 127° Southeast 528 608 37,000  Level FlightAware ADS-B
Sat 07:13:56 AM 45.0140 13.9680 128° Southeast 528 608 37,000  Level FlightAware ADS-B
Sat 07:14:31 AM 44.9580 14.0730 127° Southeast 529 609 37,000  Level FlightAware ADS-B
Sat 07:15:06 AM 44.9080 14.1660 127° Southeast 531 611 37,000  Level FlightAware ADS-B
Sat 07:15:51 AM 44.8420 14.2900 127° Southeast 535 616 37,000  Level FlightAware ADS-B
Sat 07:16:21 AM 44.8390 14.2940 137° Southeast 535 616 37,000  Level FlightAware ADS-B
Sat 07:17:08 AM 44.7270 14.5020 127° Southeast 538 619 37,000  Level FlightAware ADS-B
Sat 07:17:42 AM 44.6720 14.6020 128° Southeast 533 613 37,000 414 Level FlightAware ADS-B
Sat 07:18:35 AM 44.6010 14.7330 127° Southeast 532 612 37,600 1,055 Climbing FlightAware ADS-B
Sat 07:19:13 AM 44.5360 14.8510 128° Southeast 530 610 38,600 1,147 Climbing FlightAware ADS-B
Sat 07:19:43 AM 44.4920 14.9320 127° Southeast 530 610 38,900 265 Climbing FlightAware ADS-B
Sat 07:20:21 AM 44.4440 15.0210 127° Southeast 530 610 38,900 71 Level FlightAware ADS-B
Sat 07:21:08 AM 44.3650 15.1630 128° Southeast 525 604 39,000 78 Climbing FlightAware ADS-B
Sat 07:21:38 AM 44.3240 15.2380 127° Southeast 524 603 39,000  Level FlightAware ADS-B
Sat 07:22:18 AM 44.2630 15.3480 128° Southeast 521 600 39,000  Level FlightAware ADS-B
Sat 07:22:58 AM 44.2020 15.4550 128° Southeast 520 598 39,000  Level FlightAware ADS-B
Sat 07:23:33 AM 44.1530 15.5440 127° Southeast 517 595 39,000  Level FlightAware ADS-B
Sat 07:24:08 AM 44.0990 15.6380 129° Southeast 516 594 39,000  Level FlightAware ADS-B
Sat 07:24:43 AM 44.0510 15.7240 128° Southeast 516 594 39,000  Level FlightAware ADS-B
Sat 07:25:23 AM 43.9880 15.8340 128° Southeast 516 594 39,000  Level FlightAware ADS-B
Sat 07:25:58 AM 43.9410 15.9170 128° Southeast 514 592 39,000  Level FlightAware ADS-B
Sat 07:26:33 AM 43.8840 16.0150 129° Southeast 506 582 39,000  Level FlightAware ADS-B
Sat 07:27:08 AM 43.8350 16.1020 128° Southeast 505 581 39,000  Level FlightAware ADS-B
Sat 07:27:43 AM 43.7810 16.1960 128° Southeast 503 579 39,000  Level FlightAware ADS-B
Sat 07:28:18 AM 43.7300 16.2760 131° Southeast 502 578 39,000  Level FlightAware ADS-B
Sat 07:28:53 AM 43.6670 16.3580 137° Southeast 508 585 39,000  Level FlightAware ADS-B
Sat 07:29:38 AM 43.5940 16.4550 136° Southeast 500 575 39,000  Level FlightAware ADS-B
Sat 07:30:08 AM 43.5410 16.5240 137° Southeast 499 574 39,000  Level FlightAware ADS-B
Sat 07:30:43 AM 43.4820 16.6010 137° Southeast 505 581 39,000  Level FlightAware ADS-B
Sat 07:31:23 AM 43.4130 16.6880 137° Southeast 503 579 39,000  Level FlightAware ADS-B
Sat 07:31:53 AM 43.3670 16.7470 137° Southeast 502 578 39,000  Level FlightAware ADS-B
Sat 07:32:28 AM 43.3040 16.8250 138° Southeast 502 578 39,000  Level FlightAware ADS-B
Sat 07:33:08 AM 43.2380 16.9080 137° Southeast 503 579 39,000  Level FlightAware ADS-B
Sat 07:33:43 AM 43.1730 16.9910 137° Southeast 505 581 39,000  Level FlightAware ADS-B
Sat 07:34:13 AM 43.1220 17.0570 137° Southeast 497 572 39,000  Level FlightAware ADS-B
Sat 07:34:48 AM 43.0640 17.1310 137° Southeast 495 570 39,000  Level FlightAware ADS-B
Sat 07:35:28 AM 42.9970 17.2190 136° Southeast 495 570 39,000  Level FlightAware ADS-B
Sat 07:36:07 AM 42.9270 17.3100 136° Southeast 499 574 39,000  Level FlightAware ADS-B
Sat 07:36:43 AM 42.8680 17.3870 136° Southeast 497 572 39,000  Level FlightAware ADS-B
Sat 07:37:18 AM 42.8090 17.4630 137° Southeast 495 570 39,000  Level FlightAware ADS-B
Sat 07:37:52 AM 42.7560 17.5310 137° Southeast 495 570 39,000  Level FlightAware ADS-B
Sat 07:38:23 AM 42.7020 17.6020 136° Southeast 493 567 39,000  Level FlightAware ADS-B
Sat 07:39:03 AM 42.6360 17.6860 137° Southeast 495 570 39,000  Level FlightAware ADS-B
Sat 07:39:37 AM 42.5790 17.7590 137° Southeast 495 570 39,000  Level FlightAware ADS-B
Sat 07:40:13 AM 42.5190 17.8360 137° Southeast 493 567 39,000  Level FlightAware ADS-B
Sat 07:40:49 AM 42.4590 17.9130 137° Southeast 492 566 39,000  Level FlightAware ADS-B
Sat 07:41:21 AM 42.4060 17.9800 137° Southeast 491 565 39,000  Level FlightAware ADS-B
Sat 07:41:58 AM 42.3460 18.0570 137° Southeast 490 564 39,000  Level FlightAware ADS-B
Sat 07:42:35 AM 42.2850 18.1370 136° Southeast 489 563 39,000  Level FlightAware ADS-B
Sat 07:43:07 AM 42.2330 18.2050 136° Southeast 490 564 39,000  Level FlightAware ADS-B
Sat 07:43:45 AM 42.1710 18.2870 136° Southeast 490 564 39,000  Level FlightAware ADS-B
Sat 07:44:17 AM 42.1200 18.3530 136° Southeast 490 564 39,000  Level FlightAware ADS-B
Sat 07:44:53 AM 42.0630 18.4310 135° Southeast 492 566 39,000  Level FlightAware ADS-B
Sat 07:45:30 AM 42.0020 18.5110 136° Southeast 494 568 39,000  Level FlightAware ADS-B
Sat 07:46:02 AM 41.9510 18.5790 135° Southeast 494 568 39,000  Level FlightAware ADS-B
Sat 07:46:39 AM 41.8910 18.6580 136° Southeast 496 571 39,000  Level FlightAware ADS-B
Sat 07:47:15 AM 41.8300 18.7390 135° Southeast 499 574 39,000  Level FlightAware ADS-B
Sat 07:47:47 AM 41.7770 18.8090 135° Southeast 499 574 39,000  Level FlightAware ADS-B
Sat 07:48:25 AM 41.7150 18.8930 135° Southeast 501 577 39,000  Level FlightAware ADS-B
Sat 07:48:57 AM 41.6640 18.9640 134° Southeast 501 577 39,000  Level FlightAware ADS-B
Sat 07:49:33 AM 41.6070 19.0450 133° Southeast 501 577 39,000  Level FlightAware ADS-B
Sat 07:50:08 AM 41.5520 19.1250 133° Southeast 503 579 39,000  Level FlightAware ADS-B
Sat 07:50:44 AM 41.4950 19.2080 133° Southeast 505 581 39,000  Level FlightAware ADS-B
Sat 07:51:16 AM 41.4480 19.2800 131° Southeast 507 583 39,000  Level FlightAware ADS-B
Sat 07:51:52 AM 41.3920 19.3670 131° Southeast 507 583 39,000  Level FlightAware ADS-B
Sat 07:52:30 AM 41.3360 19.4610 128° Southeast 510 587 39,000  Level FlightAware ADS-B
Sat 07:53:03 AM 41.2920 19.5470 124° Southeast 510 587 39,000  Level FlightAware ADS-B
Sat 07:53:39 AM 41.2470 19.6460 121° Southeast 511 588 39,000  Level FlightAware ADS-B
Sat 07:54:15 AM 41.2080 19.7430 118° Southeast 514 592 39,000  Level FlightAware ADS-B
Sat 07:54:51 AM 41.1680 19.8450 117° Southeast 513 590 39,000  Level FlightAware ADS-B
Sat 07:55:23 AM 41.1360 19.9310 116° Southeast 514 592 39,000  Level FlightAware ADS-B
Sat 07:55:55 AM 41.1030 20.0240 115° Southeast 514 592 39,000  Level FlightAware ADS-B
Sat 07:56:39 AM 41.0600 20.1540 114° Southeast 514 592 39,000  Level FlightAware ADS-B
Sat 07:57:15 AM 41.0200 20.2500 119° Southeast 508 585 39,000  Level FlightAware ADS-B
Sat 07:57:51 AM 40.9640 20.3340 131° Southeast 500 575 39,000  Level FlightAware ADS-B
Sat 07:58:25 AM 40.9090 20.4030 137° Southeast 499 574 39,000  Level FlightAware ADS-B
Sat 07:59:01 AM 40.8490 20.4770 137° Southeast 499 574 39,000  Level FlightAware ADS-B
Sat 07:59:35 AM 40.7910 20.5490 137° Southeast 496 571 39,000  Level FlightAware ADS-B
Sat 08:00:11 AM 40.7320 20.6220 137° Southeast 495 570 39,000  Level FlightAware ADS-B
Sat 08:00:43 AM 40.6750 20.6920 137° Southeast 493 567 39,000  Level FlightAware ADS-B
Sat 08:01:21 AM 40.6110 20.7700 137° Southeast 493 567 39,000  Level FlightAware ADS-B
Sat 08:01:57 AM 40.5530 20.8420 137° Southeast 493 567 39,000  Level FlightAware ADS-B
Sat 08:02:33 AM 40.4910 20.9180 137° Southeast 492 566 39,000  Level FlightAware ADS-B
Sat 08:03:05 AM 40.4380 20.9820 137° Southeast 492 566 39,000  Level FlightAware ADS-B
Sat 08:03:42 AM 40.3770 21.0560 137° Southeast 491 565 39,000  Level FlightAware ADS-B
Sat 08:04:13 AM 40.3250 21.1190 137° Southeast 492 566 39,000  Level FlightAware ADS-B
Sat 08:04:51 AM 40.2600 21.1980 137° Southeast 492 566 39,000  Level FlightAware ADS-B
Sat 08:05:27 AM 40.2010 21.2700 137° Southeast 493 567 39,000  Level FlightAware ADS-B
Sat 08:06:01 AM 40.1440 21.3420 136° Southeast 494 568 39,000  Level FlightAware ADS-B
Sat 08:06:37 AM 40.0880 21.4160 135° Southeast 493 567 39,000  Level FlightAware ADS-B
Sat 08:07:09 AM 40.0360 21.4860 134° Southeast 493 567 39,000  Level FlightAware ADS-B
Sat 08:07:43 AM 39.9810 21.5580 135° Southeast 493 567 39,000  Level FlightAware ADS-B
Sat 08:08:21 AM 39.9220 21.6380 134° Southeast 495 570 39,000  Level FlightAware ADS-B
Sat 08:08:55 AM 39.8680 21.7100 134° Southeast 496 571 39,000  Level FlightAware ADS-B
Sat 08:09:31 AM 39.8080 21.7890 135° Southeast 497 572 39,000  Level FlightAware ADS-B
Sat 08:10:07 AM 39.7510 21.8660 134° Southeast 499 574 39,000  Level FlightAware ADS-B
Sat 08:10:43 AM 39.6920 21.9420 135° Southeast 501 577 39,000  Level FlightAware ADS-B
Sat 08:11:15 AM 39.6400 22.0120 134° Southeast 502 578 39,000  Level FlightAware ADS-B
Sat 08:11:53 AM 39.5820 22.0880 135° Southeast 505 581 39,000  Level FlightAware ADS-B
Sat 08:12:25 AM 39.5270 22.1610 134° Southeast 507 583 39,000  Level FlightAware ADS-B
Sat 08:13:01 AM 39.4660 22.2400 135° Southeast 509 586 39,000  Level FlightAware ADS-B
Sat 08:13:37 AM 39.4070 22.3170 135° Southeast 512 589 39,000  Level FlightAware ADS-B
Sat 08:14:11 AM 39.3490 22.3930 135° Southeast 514 592 39,000  Level FlightAware ADS-B
Sat 08:14:47 AM 39.2890 22.4710 135° Southeast 515 593 39,000  Level FlightAware ADS-B
Sat 08:15:24 AM 39.2300 22.5480 135° Southeast 514 592 39,000  Level FlightAware ADS-B
Sat 08:15:56 AM 39.1750 22.6210 134° Southeast 514 592 39,000  Level FlightAware ADS-B
Sat 08:16:33 AM 39.1150 22.7000 134° Southeast 513 590 39,000  Level FlightAware ADS-B
Sat 08:17:08 AM 39.0530 22.7790 135° Southeast 513 590 39,000  Level FlightAware ADS-B
Sat 08:17:50 AM 38.9840 22.8670 135° Southeast 512 589 39,000  Level FlightAware ADS-B
Sat 08:18:22 AM 38.9300 22.9340 136° Southeast 513 590 39,000  Level FlightAware ADS-B
Sat 08:19:04 AM 38.8620 23.0190 136° Southeast 513 590 39,000  Level FlightAware ADS-B
Sat 08:19:40 AM 38.8070 23.0890 135° Southeast 514 592 39,000  Level FlightAware ADS-B
Sat 08:20:13 AM 38.7440 23.1670 136° Southeast 514 592 39,000  Level FlightAware ADS-B
Sat 08:20:52 AM 38.6780 23.2500 136° Southeast 514 592 39,000  Level FlightAware ADS-B
Sat 08:21:24 AM 38.6240 23.3180 135° Southeast 514 592 39,000  Level FlightAware ADS-B
Sat 08:22:02 AM 38.5590 23.4000 135° Southeast 516 594 39,000  Level FlightAware ADS-B
Sat 08:22:32 AM 38.5070 23.4650 136° Southeast 516 594 39,000  Level FlightAware ADS-B
Sat 08:23:07 AM 38.4490 23.5380 135° Southeast 516 594 39,000  Level FlightAware ADS-B
Sat 08:23:45 AM 38.3830 23.6200 136° Southeast 516 594 39,000  Level FlightAware ADS-B
Sat 08:24:19 AM 38.3240 23.6920 136° Southeast 515 593 39,000  Level FlightAware ADS-B
Sat 08:25:04 AM 38.2420 23.7920 136° Southeast 516 594 39,000  Level FlightAware ADS-B
Sat 08:25:38 AM 38.1830 23.8640 136° Southeast 514 592 39,000  Level FlightAware ADS-B
Sat 08:26:15 AM 38.1220 23.9380 136° Southeast 512 589 39,000  Level FlightAware ADS-B
Sat 08:26:44 AM 38.0750 23.9960 136° Southeast 512 589 39,000  Level FlightAware ADS-B
Sat 08:27:22 AM 38.0060 24.0800 136° Southeast 510 587 39,000  Level FlightAware ADS-B
Sat 08:27:58 AM 37.9470 24.1520 136° Southeast 510 587 39,000  Level FlightAware ADS-B
Sat 08:28:32 AM 37.8970 24.2130 136° Southeast 510 587 39,000  Level FlightAware ADS-B
Sat 08:29:08 AM 37.8280 24.2980 136° Southeast 505 581 39,000  Level FlightAware ADS-B
Sat 08:29:41 AM 37.7740 24.3680 134° Southeast 507 583 39,000  Level FlightAware ADS-B
Sat 08:30:22 AM 37.7030 24.4570 135° Southeast 510 587 39,000  Level FlightAware ADS-B
Sat 08:31:00 AM 37.6400 24.5370 135° Southeast 509 586 39,000  Level FlightAware ADS-B
Sat 08:31:36 AM 37.5800 24.6120 135° Southeast 508 585 39,000  Level FlightAware ADS-B
Sat 08:32:08 AM 37.5250 24.6790 136° Southeast 505 581 39,000  Level FlightAware ADS-B
Sat 08:32:42 AM 37.4680 24.7480 136° Southeast 504 580 39,000  Level FlightAware ADS-B
Sat 08:33:19 AM 37.4080 24.8220 136° Southeast 504 580 39,000  Level FlightAware ADS-B
Sat 08:33:54 AM 37.3480 24.8940 136° Southeast 502 578 39,000  Level FlightAware ADS-B
Sat 08:34:30 AM 37.2870 24.9670 136° Southeast 502 578 39,000  Level FlightAware ADS-B
Sat 08:35:04 AM 37.2310 25.0350 136° Southeast 503 579 39,000  Level FlightAware ADS-B
Sat 08:35:40 AM 37.1750 25.1160 131° Southeast 515 593 39,000  Level FlightAware ADS-B
Sat 08:36:16 AM 37.1250 25.2060 125° Southeast 518 596 39,000  Level FlightAware ADS-B
Sat 08:36:46 AM 37.0860 25.2820 123° Southeast 521 600 39,000  Level FlightAware ADS-B
Sat 08:37:26 AM 37.0360 25.3830 122° Southeast 521 600 39,000  Level FlightAware ADS-B
Sat 08:38:02 AM 36.9890 25.4770 122° Southeast 521 600 39,000  Level FlightAware ADS-B
Sat 08:38:34 AM 36.9500 25.5570 121° Southeast 522 601 39,000  Level FlightAware ADS-B
Sat 08:39:10 AM 36.9030 25.6510 122° Southeast 523 602 39,000  Level FlightAware ADS-B
Sat 08:39:46 AM 36.8570 25.7440 122° Southeast 524 603 39,000  Level FlightAware ADS-B
Sat 08:40:18 AM 36.8180 25.8250 121° Southeast 524 603 39,000  Level FlightAware ADS-B
Sat 08:40:54 AM 36.7720 25.9170 122° Southeast 522 601 39,000  Level FlightAware ADS-B
Sat 08:41:30 AM 36.7260 26.0120 121° Southeast 522 601 39,000  Level FlightAware ADS-B
Sat 08:42:06 AM 36.6810 26.1030 122° Southeast 519 597 39,000  Level FlightAware ADS-B
Sat 08:42:38 AM 36.6410 26.1840 122° Southeast 519 597 39,000  Level FlightAware ADS-B
Sat 08:43:14 AM 36.5940 26.2770 122° Southeast 518 596 39,000  Level FlightAware ADS-B
Sat 08:43:52 AM 36.5470 26.3730 121° Southeast 517 595 39,000  Level FlightAware ADS-B
Sat 08:44:24 AM 36.5070 26.4530 122° Southeast 516 594 39,000  Level FlightAware ADS-B
Sat 08:45:00 AM 36.4610 26.5430 122° Southeast 516 594 39,000  Level FlightAware ADS-B
Sat 08:45:36 AM 36.4160 26.6330 122° Southeast 516 594 39,000  Level FlightAware ADS-B
Sat 08:46:08 AM 36.3750 26.7130 122° Southeast 516 594 39,000  Level FlightAware ADS-B
Sat 08:46:44 AM 36.3290 26.8050 122° Southeast 515 593 39,000  Level FlightAware ADS-B
Sat 08:47:21 AM 36.2830 26.8950 122° Southeast 515 593 39,000  Level FlightAware ADS-B
Sat 08:47:57 AM 36.2420 26.9790 121° Southeast 515 593 39,000  Level FlightAware ADS-B
Sat 08:48:33 AM 36.2040 27.0570 121° Southeast 515 593 39,000  Level FlightAware ADS-B
Sat 08:49:09 AM 36.1670 27.1340 121° Southeast 515 593 39,000  Level FlightAware ADS-B
Sat 08:50:01 AM 36.0850 27.2860 124° Southeast 516 594 39,000  Level FlightAware ADS-B
Sat 08:50:32 AM 36.0410 27.3700 123° Southeast 516 594 39,000  Level FlightAware ADS-B
Sat 08:51:09 AM 36.0020 27.4490 121° Southeast 516 594 39,000  Level FlightAware ADS-B
Sat 08:51:46 AM 35.9620 27.5270 122° Southeast 516 594 39,000  Level FlightAware ADS-B
Sat 08:52:22 AM 35.9230 27.6040 122° Southeast 516 594 39,000  Level FlightAware ADS-B
Sat 08:52:59 AM 35.8830 27.6820 122° Southeast 516 594 39,000  Level FlightAware ADS-B
Sat 08:53:35 AM 35.8450 27.7590 121° Southeast 516 594 39,000  Level FlightAware ADS-B
Sat 08:54:11 AM 35.8060 27.8350 122° Southeast 516 594 39,000  Level FlightAware ADS-B
Sat 08:54:48 AM 35.7660 27.9140 122° Southeast 516 594 39,000  Level FlightAware ADS-B
Sat 08:55:23 AM 35.6660 28.0900 125° Southeast 510 587 39,000  Level FlightAware ADS-B
Sat 08:55:59 AM 35.6200 28.1790 122° Southeast 510 587 39,000  Level FlightAware ADS-B
Sat 08:56:32 AM 35.5790 28.2580 123° Southeast 509 586 39,000  Level FlightAware ADS-B
Sat 08:57:07 AM 35.5340 28.3420 123° Southeast 508 585 39,000  Level FlightAware ADS-B
Sat 08:57:43 AM 35.4880 28.4310 122° Southeast 507 583 39,000  Level FlightAware ADS-B
Sat 08:58:13 AM 35.4490 28.5030 124° Southeast 506 582 39,000  Level FlightAware ADS-B
Sat 08:58:49 AM 35.4050 28.5870 123° Southeast 504 580 39,000  Level FlightAware ADS-B
Sat 08:59:29 AM 35.3550 28.6810 123° Southeast 503 579 39,000  Level FlightAware ADS-B
Sat 09:00:01 AM 35.3110 28.7630 123° Southeast 500 575 39,000  Level FlightAware ADS-B
Sat 09:00:38 AM 35.2680 28.8430 123° Southeast 501 577 39,000  Level FlightAware ADS-B
Sat 09:01:19 AM 35.2240 28.9260 123° Southeast 501 577 39,000  Level FlightAware ADS-B
Sat 09:01:55 AM 35.1860 28.9990 122° Southeast 501 577 39,000  Level FlightAware ADS-B
Sat 09:02:49 AM 35.1050 29.1480 124° Southeast 503 579 39,000  Level FlightAware ADS-B
Sat 09:03:23 AM 35.0610 29.2300 123° Southeast 504 580 39,000  Level FlightAware ADS-B
Sat 09:03:59 AM 35.0220 29.3030 123° Southeast 504 580 39,000  Level FlightAware ADS-B
Sat 09:04:34 AM 34.9660 29.4040 124° Southeast 500 575 39,000  Level FlightAware ADS-B
Sat 09:05:08 AM 34.9190 29.4890 124° Southeast 502 578 39,000  Level FlightAware ADS-B
Sat 09:05:44 AM 34.8750 29.5700 123° Southeast 503 579 39,000  Level FlightAware ADS-B
Sat 09:06:19 AM 34.8320 29.6480 124° Southeast 504 580 39,000  Level FlightAware ADS-B
Sat 09:06:59 AM 34.7790 29.7440 124° Southeast 503 579 39,000  Level FlightAware ADS-B
Sat 09:07:29 AM 34.7370 29.8210 124° Southeast 503 579 39,000  Level FlightAware ADS-B
Sat 09:08:12 AM 34.6950 29.9000 123° Southeast 503 579 39,000  Level FlightAware ADS-B
Sat 09:08:48 AM 34.6560 29.9720 123° Southeast 503 579 39,000  Level FlightAware ADS-B
Sat 09:09:29 AM 34.5860 30.1120 121° Southeast 512 589 39,000  Level FlightAware ADS-B
Sat 09:10:09 AM 34.5380 30.2130 120° Southeast 514 592 39,000  Level FlightAware ADS-B
Sat 09:10:45 AM 34.4960 30.3000 120° Southeast 515 593 39,000  Level FlightAware ADS-B
Sat 09:11:22 AM 34.4540 30.3880 120° Southeast 517 595 39,000  Level FlightAware ADS-B
Sat 09:11:57 AM 34.4230 30.4530 120° Southeast 517 595 39,000  Level FlightAware ADS-B
Sat 09:12:35 AM 34.3630 30.5780 120° Southeast 518 596 39,000  Level FlightAware ADS-B
Sat 09:13:11 AM 34.3210 30.6650 120° Southeast 519 597 39,000  Level FlightAware ADS-B
Sat 09:13:45 AM 34.2770 30.7550 121° Southeast 520 598 39,000  Level FlightAware ADS-B
Sat 09:14:26 AM 34.2280 30.8560 120° Southeast 517 595 39,000  Level FlightAware ADS-B
Sat 09:14:56 AM 34.1910 30.9320 120° Southeast 517 595 39,000  Level FlightAware ADS-B
Sat 09:15:32 AM 34.1480 31.0200 121° Southeast 518 596 39,000  Level FlightAware ADS-B
Sat 09:16:09 AM 34.1040 31.1110 120° Southeast 518 596 39,000  Level FlightAware ADS-B
Sat 09:16:44 AM 34.0590 31.2040 120° Southeast 519 597 39,000  Level FlightAware ADS-B
Sat 09:17:14 AM 34.0220 31.2790 121° Southeast 520 598 39,000  Level FlightAware ADS-B
Sat 09:17:55 AM 33.9720 31.3810 121° Southeast 518 596 39,000  Level FlightAware ADS-B
Sat 09:18:25 AM 33.9350 31.4560 121° Southeast 518 596 39,000  Level FlightAware ADS-B
Sat 09:19:05 AM 33.8850 31.5560 121° Southeast 517 595 39,000  Level FlightAware ADS-B
Sat 09:19:35 AM 33.8470 31.6320 121° Southeast 517 595 39,000  Level FlightAware ADS-B
Sat 09:20:15 AM 33.7980 31.7290 121° Southeast 521 600 39,000  Level FlightAware ADS-B
Sat 09:20:50 AM 33.7540 31.8150 122° Southeast 516 594 39,000  Level FlightAware ADS-B
Sat 09:21:20 AM 33.7170 31.8890 121° Southeast 516 594 39,000  Level FlightAware ADS-B
Sat 09:22:00 AM 33.6690 31.9880 120° Southeast 519 597 39,000  Level FlightAware ADS-B
Sat 09:22:35 AM 33.6280 32.0720 120° Southeast 518 596 39,000  Level FlightAware ADS-B
Sat 09:23:05 AM 33.5900 32.1500 120° Southeast 517 595 39,000  Level FlightAware ADS-B
Sat 09:23:41 AM 33.5460 32.2400 120° Southeast 514 592 39,000 -640 Level FlightAware ADS-B
Sat 09:24:20 AM 33.4980 32.3370 121° Southeast 511 588 38,200 -1,286 Descending FlightAware ADS-B
Sat 09:24:51 AM 33.4610 32.4100 121° Southeast 514 592 37,500 -1,263 Descending FlightAware ADS-B
Sat 09:25:36 AM 33.4090 32.5120 121° Southeast 515 593 36,600 -1,624 Descending FlightAware ADS-B
Sat 09:26:16 AM 33.3560 32.6170 121° Southeast 502 578 35,200 -2,278 Descending FlightAware ADS-B
Sat 09:26:55 AM 33.3060 32.7140 122° Southeast 500 575 33,600 -2,260 Descending FlightAware ADS-B
Sat 09:27:33 AM 33.2640 32.7950 122° Southeast 495 570 32,300 -2,289 Descending FlightAware ADS-B
Sat 09:28:11 AM 33.2150 32.8890 122° Southeast 489 563 30,700 -2,417 Descending FlightAware ADS-B
Sat 09:28:45 AM 33.1750 32.9680 121° Southeast 482 555 29,400 -2,182 Descending FlightAware ADS-B
Sat 09:29:17 AM 33.1380 33.0390 122° Southeast 474 545 28,300 -2,143 Descending FlightAware ADS-B
Sat 09:29:55 AM 33.0940 33.1240 122° Southeast 462 532 26,900 -2,175 Descending FlightAware ADS-B
Sat 09:30:37 AM 33.0470 33.2130 122° Southeast 450 518 25,400 -1,955 Descending FlightAware ADS-B
Sat 09:31:24 AM 32.9990 33.3060 122° Southeast 436 502 24,000 -1,926 Descending FlightAware ADS-B
Sat 09:31:58 AM 32.9610 33.3800 121° Southeast 427 491 22,800 -2,000 Descending FlightAware ADS-B
Sat 09:32:33 AM 32.9240 33.4490 123° Southeast 419 482 21,700 -1,808 Descending FlightAware ADS-B
Sat 09:33:11 AM 32.8870 33.5200 122° Southeast 409 471 20,600 -1,808 Descending FlightAware ADS-B
Sat 09:33:46 AM 32.8520 33.5890 121° Southeast 401 461 19,500 -1,859 Descending FlightAware ADS-B
Sat 09:34:22 AM 32.8160 33.6560 123° Southeast 393 452 18,400 -1,853 Descending FlightAware ADS-B
Sat 09:34:54 AM 32.7860 33.7150 121° Southeast 387 445 17,400 -1,739 Descending FlightAware ADS-B
Sat 09:35:31 AM 32.7510 33.7800 123° Southeast 380 437 16,400 -1,690 Descending FlightAware ADS-B
Sat 09:36:05 AM 32.7200 33.8400 122° Southeast 372 428 15,400 -1,652 Descending FlightAware ADS-B
Sat 09:36:40 AM 32.6910 33.8940 123° Southeast 364 419 14,500 -1,583 Descending FlightAware ADS-B
Sat 09:37:17 AM 32.6550 33.9610 123° Southeast 355 409 13,500 -1,644 Descending FlightAware ADS-B
Sat 09:37:53 AM 32.6240 34.0190 122° Southeast 348 400 12,500 -1,612 Descending FlightAware ADS-B
Sat 09:38:24 AM 32.5980 34.0680 122° Southeast 341 392 11,700 -1,273 Descending FlightAware ADS-B
Sat 09:38:59 AM 32.5640 34.1170 129° Southeast 328 377 11,100 -911 Descending FlightAware ADS-B
Sat 09:39:43 AM 32.5200 34.1680 136° Southeast 327 376 10,500 -684 Descending FlightAware ADS-B
Sat 09:40:18 AM 32.4800 34.2140 136° Southeast 299 344 10,200 -873 Descending FlightAware ADS-B
Sat 09:40:38 AM 32.4600 34.2370 136° Southeast 298 343 9,700 -1,535 Descending FlightAware ADS-B
Sat 09:41:01 AM 32.4370 34.2660 133° Southeast 298 343 9,100 -1,404 Descending FlightAware ADS-B
Sat 09:41:25 AM 32.4160 34.2970 129° Southeast 291 335 8,600 -1,021 Descending FlightAware ADS-B
Sat 09:41:48 AM 32.4000 34.3220 127° Southeast 285 328 8,300 -977 Descending FlightAware ADS-B
Sat 09:42:08 AM 32.3850 34.3450 128° Southeast 284 327 7,900 -1,543 Descending FlightAware ADS-B
Sat 09:42:23 AM 32.3700 34.3650 132° Southeast 287 330 7,400 -1,371 Descending FlightAware ADS-B
Sat 09:42:43 AM 32.3560 34.3860 128° Southeast 284 327 7,100 -1,200 Descending FlightAware ADS-B
Sat 09:43:03 AM 32.3380 34.4110 130° Southeast 283 326 6,600 -1,320 Descending FlightAware ADS-B
Sat 09:43:33 AM 32.3130 34.4470 129° Southeast 282 325 6,000 -1,149 Descending FlightAware ADS-B
Sat 09:43:50 AM 32.3010 34.4660 127° Southeast 282 325 5,700 -764 Descending FlightAware ADS-B
Sat 09:44:28 AM 32.2840 34.4890 131° Southeast 287 330 5,300 -453 Descending FlightAware ADS-B
Sat 09:44:43 AM 32.2550 34.5310 129° Southeast 287 330 5,300  Level FlightAware ADS-B
Sat 09:45:13 AM 32.2310 34.5710 125° Southeast 284 327 5,300  Level FlightAware ADS-B
Sat 09:45:28 AM 32.2200 34.5920 122° Southeast 286 329 5,300  Level FlightAware ADS-B
Sat 09:45:48 AM 32.2060 34.6170 123° Southeast 281 323 5,300  Level FlightAware ADS-B
Sat 09:46:08 AM 32.1930 34.6410 123° Southeast 261 300 5,300  Level FlightAware ADS-B
Sat 09:46:34 AM 32.1750 34.6720 124° Southeast 246 283 5,300  Level FlightAware ADS-B
Sat 09:47:00 AM 32.1600 34.6990 123° Southeast 246 283 5,300  Level FlightAware ADS-B
Sat 09:47:18 AM 32.1470 34.7180 129° Southeast 245 282 5,300 -250 Level FlightAware ADS-B
Sat 09:47:48 AM 32.1220 34.7470 136° Southeast 243 280 5,100 -500 Descending FlightAware ADS-B
Sat 09:48:06 AM 32.1070 34.7630 138° Southeast 227 261 4,900 -571 Descending FlightAware ADS-B
Sat 09:48:30 AM 32.0890 34.7830 137° Southeast 228 262 4,700 -857 Descending FlightAware ADS-B
Sat 09:48:48 AM 32.0750 34.7980 138° Southeast 230 265 4,300 -1,421 Descending FlightAware ADS-B
Sat 09:49:08 AM 32.0610 34.8140 136° Southeast 231 266 3,800 -1,455 Descending FlightAware ADS-B
Sat 09:49:21 AM 32.0570 34.8300 106° East 229 264 3,500 -1,200 Descending FlightAware ADS-B
Sat 09:49:43 AM 32.0600 34.8570 83° East 202 232 3,100 -1,154 Descending FlightAware ADS-B
Sat 09:50:13 AM 32.0660 34.8880 77° East 193 222 2,500 -1,067 Descending FlightAware ADS-B
Sat 09:50:28 AM 32.0710 34.9010 66° East 187 215 2,300 -1,200 Descending FlightAware ADS-B
Sat 09:50:33 AM 32.0760 34.9060 40° Northeast 181 208 2,100 -1,200 Descending FlightAware ADS-B
Sat 09:50:48 AM 32.0870 34.9100 17° North 167 192 1,900 -857 Descending FlightAware ADS-B
Sat 09:51:08 AM 32.1000 34.9060 345° North 158 182 1,600 -391 Descending FlightAware ADS-B
Sat 09:51:34 AM 32.1150 34.8990 338° Northwest 158 182 1,600  Level FlightAware ADS-B
Sat 09:54:00 AM 32.0095 34.8769 125° Southeast  Level Estimated

Login

Don't have an account? Register now (free) for customized features, flight alerts, and more!